Time,TemperatureF,DewpointF,PressureIn,WindDirection,WindDirectionDegrees,WindSpeedMPH,WindSpeedGustMPH,Humidity,HourlyPrecipIn,Conditions,Clouds,dailyrainin,SoftwareType,DateUTC
2013-10-05 00:00:00,65.3,50.1,28.76,NW,315,0.0,2.0,58,0.00,,,0.00,WeatherDisplay:10.37,2013-10-05 05:00:00,
2013-10-05 00:04:00,85.3,72.2,28.70,North,0,1.1,0.0,65,0.00,CLR,,0.00,WeatherDisplay:10.37,2013-10-05 05:04:00,
2013-10-05 00:05:00,65.3,50.1,28.76,NW,315,0.0,2.0,58,0.00,,,0.00,WeatherDisplay:10.37,2013-10-05 05:05:00,
2013-10-05 00:09:00,85.3,72.2,28.70,North,0,1.1,0.0,65,0.00,CLR,,0.00,WeatherDisplay:10.37,2013-10-05 05:09:00,
2013-10-05 00:10:00,65.3,50.1,28.76,NW,315,0.0,2.0,58,0.00,,,0.00,WeatherDisplay:10.37,2013-10-05 05:10:00,
2013-10-05 00:14:00,85.3,72.2,28.70,North,0,1.1,0.0,65,0.00,CLR,,0.00,WeatherDisplay:10.37,2013-10-05 05:14:00,
2013-10-05 00:15:00,65.3,50.1,28.76,NW,315,0.0,2.0,58,0.00,,,0.00,WeatherDisplay:10.37,2013-10-05 05:15:00,
2013-10-05 00:19:00,85.3,72.2,28.70,North,0,1.1,0.0,65,0.00,CLR,,0.00,WeatherDisplay:10.37,2013-10-05 05:19:00,
2013-10-05 00:20:00,65.1,50.4,28.78,NNW,329,0.0,2.0,59,0.00,,,0.00,WeatherDisplay:10.37,2013-10-05 05:20:00,
2013-10-05 00:24:00,85.3,72.2,28.70,North,0,1.1,0.0,65,0.00,CLR,,0.00,WeatherDisplay:10.37,2013-10-05 05:24:00,
2013-10-05 00:25:00,65.1,50.4,28.78,NNE,22,0.0,2.0,59,0.00,,,0.00,WeatherDisplay:10.37,2013-10-05 05:25:00,
2013-10-05 00:29:00,85.3,72.2,28.70,North,0,1.1,0.0,65,0.00,CLR,,0.00,WeatherDisplay:10.37,2013-10-05 05:29:00,
2013-10-05 00:30:00,65.1,50.4,28.78,NE,45,0.0,2.0,59,0.00,,,0.00,WeatherDisplay:10.37,2013-10-05 05:30:00,
2013-10-05 00:34:00,85.3,72.2,28.70,North,0,1.1,0.0,65,0.00,CLR,,0.00,WeatherDisplay:10.37,2013-10-05 05:34:00,
2013-10-05 00:35:00,65.1,50.4,28.78,NE,45,0.0,2.0,59,0.00,,,0.00,WeatherDisplay:10.37,2013-10-05 05:35:00,
2013-10-05 00:39:00,85.3,72.2,28.70,North,0,1.1,0.0,65,0.00,CLR,,0.00,WeatherDisplay:10.37,2013-10-05 05:39:00,
2013-10-05 00:40:00,65.1,50.4,28.78,NE,45,0.0,2.0,59,0.00,,,0.00,WeatherDisplay:10.37,2013-10-05 05:40:00,
2013-10-05 00:44:00,85.3,72.2,28.70,North,0,1.1,0.0,65,0.00,CLR,,0.00,WeatherDisplay:10.37,2013-10-05 05:44:00,
2013-10-05 00:45:00,65.1,50.4,28.78,NE,45,0.0,2.0,59,0.00,,,0.00,WeatherDisplay:10.37,2013-10-05 05:45:00,
2013-10-05 00:49:00,85.3,72.2,28.70,North,0,1.1,0.0,65,0.00,CLR,,0.00,WeatherDisplay:10.37,2013-10-05 05:49:00,
2013-10-05 00:50:00,63.9,49.2,28.78,NNE,31,0.0,2.0,59,0.00,,,0.00,WeatherDisplay:10.37,2013-10-05 05:50:00,
2013-10-05 00:54:00,85.3,72.2,28.70,North,0,1.1,0.0,65,0.00,CLR,,0.00,WeatherDisplay:10.37,2013-10-05 05:54:00,
2013-10-05 00:55:00,63.9,49.2,28.78,NNW,338,0.0,1.0,59,0.00,,,0.00,WeatherDisplay:10.37,2013-10-05 05:55:00,
2013-10-05 00:59:00,85.3,72.2,28.70,North,0,1.1,0.0,65,0.00,CLR,,0.00,WeatherDisplay:10.37,2013-10-05 05:59:00,
2013-10-05 01:00:00,63.9,49.2,28.78,NW,315,0.0,1.0,59,0.00,,,0.00,WeatherDisplay:10.37,2013-10-05 06:00:00,
2013-10-05 01:04:00,85.3,72.2,28.70,North,0,1.1,0.0,65,0.00,CLR,,0.00,WeatherDisplay:10.37,2013-10-05 06:04:00,
2013-10-05 01:05:00,63.9,49.2,28.78,NW,315,0.0,1.0,59,0.00,,,0.00,WeatherDisplay:10.37,2013-10-05 06:05:00,
2013-10-05 01:09:00,85.3,72.2,28.70,North,0,1.1,0.0,65,0.00,CLR,,0.00,WeatherDisplay:10.37,2013-10-05 06:09:00,
2013-10-05 01:10:00,63.9,49.2,28.78,NW,315,0.0,1.0,59,0.00,,,0.00,WeatherDisplay:10.37,2013-10-05 06:10:00,
2013-10-05 01:14:00,85.3,72.2,28.70,North,0,1.1,0.0,65,0.00,CLR,,0.00,WeatherDisplay:10.37,2013-10-05 06:14:00,
2013-10-05 01:15:00,63.9,49.2,28.78,NW,315,0.0,1.0,59,0.00,,,0.00,WeatherDisplay:10.37,2013-10-05 06:15:00,
2013-10-05 01:19:00,85.3,72.2,28.70,North,0,1.1,0.0,65,0.00,CLR,,0.00,WeatherDisplay:10.37,2013-10-05 06:19:00,
2013-10-05 01:20:00,61.9,49.1,28.78,NW,315,0.0,1.0,63,0.00,,,0.00,WeatherDisplay:10.37,2013-10-05 06:20:00,
2013-10-05 01:24:00,85.3,72.2,28.70,North,0,1.1,0.0,65,0.00,CLR,,0.00,WeatherDisplay:10.37,2013-10-05 06:24:00,
2013-10-05 01:25:00,61.9,49.1,28.78,NW,315,0.0,1.0,63,0.00,,,0.00,WeatherDisplay:10.37,2013-10-05 06:25:00,
2013-10-05 01:29:00,85.3,72.2,28.70,North,0,1.1,0.0,65,0.00,CLR,,0.00,WeatherDisplay:10.37,2013-10-05 06:29:00,
2013-10-05 01:30:00,61.9,49.1,28.78,NW,315,0.0,1.0,63,0.00,,,0.00,WeatherDisplay:10.37,2013-10-05 06:30:00,
2013-10-05 01:34:00,85.3,72.2,28.70,North,0,1.1,0.0,65,0.00,CLR,,0.00,WeatherDisplay:10.37,2013-10-05 06:34:00,
2013-10-05 01:35:00,61.9,49.1,28.78,NW,315,0.0,1.0,63,0.00,,,0.00,WeatherDisplay:10.37,2013-10-05 06:35:00,
2013-10-05 01:39:00,85.3,72.2,28.70,North,0,1.1,0.0,65,0.00,CLR,,0.00,WeatherDisplay:10.37,2013-10-05 06:39:00,
2013-10-05 01:40:00,61.9,49.1,28.78,NW,315,0.0,1.0,63,0.00,,,0.00,WeatherDisplay:10.37,2013-10-05 06:40:00,
2013-10-05 01:44:00,85.3,72.2,28.70,North,0,1.1,0.0,65,0.00,CLR,,0.00,WeatherDisplay:10.37,2013-10-05 06:44:00,
2013-10-05 01:45:00,61.9,49.1,28.78,NW,315,0.0,1.0,63,0.00,,,0.00,WeatherDisplay:10.37,2013-10-05 06:45:00,
2013-10-05 01:49:00,85.3,72.2,28.70,North,0,1.1,0.0,65,0.00,CLR,,0.00,WeatherDisplay:10.37,2013-10-05 06:49:00,
2013-10-05 01:50:00,61.0,49.1,28.79,NW,326,0.0,1.0,65,0.00,,,0.00,WeatherDisplay:10.37,2013-10-05 06:50:00,
2013-10-05 01:54:00,85.3,72.2,28.70,North,0,1.1,0.0,65,0.00,CLR,,0.00,WeatherDisplay:10.37,2013-10-05 06:54:00,
2013-10-05 01:55:00,61.0,49.1,28.79,North,357,0.0,0.0,65,0.00,,,0.00,WeatherDisplay:10.37,2013-10-05 06:55:00,
2013-10-05 01:59:00,85.3,72.2,28.70,North,0,1.1,0.0,65,0.00,CLR,,0.00,WeatherDisplay:10.37,2013-10-05 06:59:00,
2013-10-05 02:00:00,61.0,49.1,28.79,NNE,14,0.0,0.0,65,0.00,,,0.00,WeatherDisplay:10.37,2013-10-05 07:00:00,
2013-10-05 02:04:00,85.3,72.2,28.70,North,0,1.1,0.0,65,0.00,CLR,,0.00,WeatherDisplay:10.37,2013-10-05 07:04:00,
2013-10-05 02:05:00,61.0,49.1,28.79,NNE,14,0.0,0.0,65,0.00,,,0.00,WeatherDisplay:10.37,2013-10-05 07:05:00,
2013-10-05 02:09:00,85.3,72.2,28.70,North,0,1.1,0.0,65,0.00,CLR,,0.00,WeatherDisplay:10.37,2013-10-05 07:09:00,
2013-10-05 02:10:00,61.0,49.1,28.79,NNE,14,0.0,0.0,65,0.00,,,0.00,WeatherDisplay:10.37,2013-10-05 07:10:00,
2013-10-05 02:14:00,85.3,72.2,28.70,North,0,1.1,0.0,65,0.00,CLR,,0.00,WeatherDisplay:10.37,2013-10-05 07:14:00,
2013-10-05 02:15:00,61.0,49.1,28.79,NNE,14,0.0,0.0,65,0.00,,,0.00,WeatherDisplay:10.37,2013-10-05 07:15:00,
2013-10-05 02:19:00,85.3,72.2,28.70,North,0,1.1,0.0,65,0.00,CLR,,0.00,WeatherDisplay:10.37,2013-10-05 07:19:00,
2013-10-05 02:20:00,60.1,49.1,28.79,North,3,0.0,0.0,67,0.00,,,0.00,WeatherDisplay:10.37,2013-10-05 07:20:00,
2013-10-05 02:24:00,85.3,72.2,28.70,North,0,1.1,0.0,65,0.00,CLR,,0.00,WeatherDisplay:10.37,2013-10-05 07:24:00,
2013-10-05 02:25:00,60.1,49.1,28.79,NNW,332,0.0,0.0,67,0.00,,,0.00,WeatherDisplay:10.37,2013-10-05 07:25:00,
2013-10-05 02:29:00,85.3,72.2,28.70,North,0,1.1,0.0,65,0.00,CLR,,0.00,WeatherDisplay:10.37,2013-10-05 07:29:00,
2013-10-05 02:30:00,60.1,49.1,28.79,NW,315,0.0,0.0,67,0.00,,,0.00,WeatherDisplay:10.37,2013-10-05 07:30:00,
2013-10-05 02:34:00,85.3,72.2,28.70,North,0,1.1,0.0,65,0.00,CLR,,0.00,WeatherDisplay:10.37,2013-10-05 07:34:00,
2013-10-05 02:35:00,60.1,49.1,28.79,NW,315,0.0,0.0,67,0.00,,,0.00,WeatherDisplay:10.37,2013-10-05 07:35:00,
2013-10-05 02:39:00,85.3,72.2,28.70,North,0,1.1,0.0,65,0.00,CLR,,0.00,WeatherDisplay:10.37,2013-10-05 07:39:00,
2013-10-05 02:40:00,60.1,49.1,28.79,NW,315,0.0,0.0,67,0.00,,,0.00,WeatherDisplay:10.37,2013-10-05 07:40:00,
2013-10-05 02:44:00,85.3,72.2,28.70,North,0,1.1,0.0,65,0.00,CLR,,0.00,WeatherDisplay:10.37,2013-10-05 07:44:00,
2013-10-05 02:45:00,60.1,49.1,28.79,NW,315,0.0,0.0,67,0.00,,,0.00,WeatherDisplay:10.37,2013-10-05 07:45:00,
2013-10-05 02:49:00,85.3,72.2,28.70,North,0,1.1,0.0,65,0.00,CLR,,0.00,WeatherDisplay:10.37,2013-10-05 07:49:00,
2013-10-05 02:50:00,58.6,48.5,28.80,WNW,303,0.0,0.0,69,0.00,,,0.00,WeatherDisplay:10.37,2013-10-05 07:50:00,
2013-10-05 02:54:00,85.3,72.2,28.70,North,0,1.1,0.0,65,0.00,CLR,,0.00,WeatherDisplay:10.37,2013-10-05 07:54:00,
2013-10-05 02:55:00,58.6,48.5,28.80,SSW,204,0.0,0.0,69,0.00,,,0.00,WeatherDisplay:10.37,2013-10-05 07:55:00,
2013-10-05 02:59:00,85.3,72.2,28.70,North,0,1.1,0.0,65,0.00,CLR,,0.00,WeatherDisplay:10.37,2013-10-05 07:59:00,
2013-10-05 03:00:00,58.6,48.5,28.80,South,180,0.0,0.0,69,0.00,,,0.00,WeatherDisplay:10.37,2013-10-05 08:00:00,
2013-10-05 03:04:00,85.3,72.2,28.70,North,0,1.1,0.0,65,0.00,CLR,,0.00,WeatherDisplay:10.37,2013-10-05 08:04:00,
2013-10-05 03:05:00,58.6,48.5,28.80,South,180,0.0,0.0,69,0.00,,,0.00,WeatherDisplay:10.37,2013-10-05 08:05:00,
2013-10-05 03:09:00,85.3,72.2,28.70,North,0,1.1,0.0,65,0.00,CLR,,0.00,WeatherDisplay:10.37,2013-10-05 08:09:00,
2013-10-05 03:10:00,58.6,48.5,28.80,South,180,0.0,0.0,69,0.00,,,0.00,WeatherDisplay:10.37,2013-10-05 08:10:00,
2013-10-05 03:14:00,85.3,72.2,28.70,North,0,1.1,0.0,65,0.00,CLR,,0.00,WeatherDisplay:10.37,2013-10-05 08:14:00,
2013-10-05 03:15:00,58.6,48.5,28.80,South,180,0.0,0.0,69,0.00,,,0.00,WeatherDisplay:10.37,2013-10-05 08:15:00,
2013-10-05 03:19:00,85.3,72.2,28.70,North,0,1.1,0.0,65,0.00,CLR,,0.00,WeatherDisplay:10.37,2013-10-05 08:19:00,
2013-10-05 03:20:00,57.7,49.1,28.80,South,189,0.0,0.0,73,0.00,,,0.00,WeatherDisplay:10.37,2013-10-05 08:20:00,
2013-10-05 03:24:00,85.3,72.2,28.70,North,0,1.1,0.0,65,0.00,CLR,,0.00,WeatherDisplay:10.37,2013-10-05 08:24:00,
2013-10-05 03:25:00,57.7,49.1,28.80,SSW,212,0.0,0.0,73,0.00,,,0.00,WeatherDisplay:10.37,2013-10-05 08:25:00,
2013-10-05 03:29:00,85.3,72.2,28.70,North,0,1.1,0.0,65,0.00,CLR,,0.00,WeatherDisplay:10.37,2013-10-05 08:29:00,
2013-10-05 03:30:00,57.7,49.1,28.80,SW,225,0.0,0.0,73,0.00,,,0.00,WeatherDisplay:10.37,2013-10-05 08:30:00,
2013-10-05 03:34:00,85.3,72.2,28.70,North,0,1.1,0.0,65,0.00,CLR,,0.00,WeatherDisplay:10.37,2013-10-05 08:34:00,
2013-10-05 03:35:00,57.7,49.1,28.80,SW,225,0.0,0.0,73,0.00,,,0.00,WeatherDisplay:10.37,2013-10-05 08:35:00,
2013-10-05 03:39:00,85.3,72.2,28.70,North,0,1.1,0.0,65,0.00,CLR,,0.00,WeatherDisplay:10.37,2013-10-05 08:39:00,
2013-10-05 03:40:00,57.7,49.1,28.80,SW,225,0.0,0.0,73,0.00,,,0.00,WeatherDisplay:10.37,2013-10-05 08:40:00,
2013-10-05 03:44:00,85.3,72.2,28.70,North,0,1.1,0.0,65,0.00,CLR,,0.00,WeatherDisplay:10.37,2013-10-05 08:44:00,
2013-10-05 03:45:00,57.7,49.1,28.80,SW,225,0.0,0.0,73,0.00,,,0.00,WeatherDisplay:10.37,2013-10-05 08:45:00,
2013-10-05 03:49:00,85.3,72.2,28.70,North,0,1.1,0.0,65,0.00,CLR,,0.00,WeatherDisplay:10.37,2013-10-05 08:49:00,
2013-10-05 03:50:00,54.5,47.4,28.82,SW,235,0.0,0.0,77,0.00,,,0.00,WeatherDisplay:10.37,2013-10-05 08:50:00,
2013-10-05 03:54:00,85.3,72.2,28.70,North,0,1.1,0.0,65,0.00,CLR,,0.00,WeatherDisplay:10.37,2013-10-05 08:54:00,
2013-10-05 03:55:00,54.5,47.4,28.82,North,349,0.0,0.0,77,0.00,,,0.00,WeatherDisplay:10.37,2013-10-05 08:55:00,
2013-10-05 03:59:00,85.3,72.2,28.70,North,0,1.1,0.0,65,0.00,CLR,,0.00,WeatherDisplay:10.37,2013-10-05 08:59:00,
2013-10-05 04:00:00,54.5,47.4,28.82,North,10,0.0,0.0,77,0.00,,,0.00,WeatherDisplay:10.37,2013-10-05 09:00:00,
2013-10-05 04:04:00,85.3,72.2,28.70,North,0,1.1,0.0,65,0.00,CLR,,0.00,WeatherDisplay:10.37,2013-10-05 09:04:00,
2013-10-05 04:05:00,54.5,47.4,28.82,North,10,0.0,0.0,77,0.00,,,0.00,WeatherDisplay:10.37,2013-10-05 09:05:00,
2013-10-05 04:09:00,85.3,72.2,28.70,North,0,1.1,0.0,65,0.00,CLR,,0.00,WeatherDisplay:10.37,2013-10-05 09:09:00,
2013-10-05 04:10:00,54.5,47.4,28.82,North,10,0.0,0.0,77,0.00,,,0.00,WeatherDisplay:10.37,2013-10-05 09:10:00,
2013-10-05 04:14:00,85.3,72.2,28.70,North,0,1.1,0.0,65,0.00,CLR,,0.00,WeatherDisplay:10.37,2013-10-05 09:14:00,
2013-10-05 04:15:00,54.5,47.4,28.82,North,10,0.0,0.0,77,0.00,,,0.00,WeatherDisplay:10.37,2013-10-05 09:15:00,
2013-10-05 04:19:00,85.3,72.2,28.70,North,0,1.1,0.0,65,0.00,CLR,,0.00,WeatherDisplay:10.37,2013-10-05 09:19:00,
2013-10-05 04:20:00,52.5,47.5,28.83,NNE,13,0.0,0.0,83,0.00,,,0.00,WeatherDisplay:10.37,2013-10-05 09:20:00,
2013-10-05 04:24:00,85.3,72.2,28.70,North,0,1.1,0.0,65,0.00,CLR,,0.00,WeatherDisplay:10.37,2013-10-05 09:24:00,
2013-10-05 04:25:00,52.5,47.5,28.83,South,173,0.0,0.0,83,0.00,,,0.00,WeatherDisplay:10.37,2013-10-05 09:25:00,
2013-10-05 04:29:00,85.3,72.2,28.70,North,0,1.1,0.0,65,0.00,CLR,,0.00,WeatherDisplay:10.37,2013-10-05 09:29:00,
2013-10-05 04:30:00,52.5,47.5,28.83,South,180,0.0,0.0,83,0.00,,,0.00,WeatherDisplay:10.37,2013-10-05 09:30:00,
2013-10-05 04:34:00,85.3,72.2,28.70,North,0,1.1,0.0,65,0.00,CLR,,0.00,WeatherDisplay:10.37,2013-10-05 09:34:00,
2013-10-05 04:35:00,52.5,47.5,28.83,South,180,0.0,0.0,83,0.00,,,0.00,WeatherDisplay:10.37,2013-10-05 09:35:00,
2013-10-05 04:39:00,85.3,72.2,28.70,North,0,1.1,0.0,65,0.00,CLR,,0.00,WeatherDisplay:10.37,2013-10-05 09:39:00,
2013-10-05 04:40:00,52.5,47.5,28.83,South,180,0.0,0.0,83,0.00,,,0.00,WeatherDisplay:10.37,2013-10-05 09:40:00,
2013-10-05 04:44:00,85.3,72.2,28.70,North,0,1.1,0.0,65,0.00,CLR,,0.00,WeatherDisplay:10.37,2013-10-05 09:44:00,
2013-10-05 04:45:00,52.5,47.5,28.83,South,180,0.0,0.0,83,0.00,,,0.00,WeatherDisplay:10.37,2013-10-05 09:45:00,
2013-10-05 04:49:00,85.3,72.2,28.70,North,0,1.1,0.0,65,0.00,CLR,,0.00,WeatherDisplay:10.37,2013-10-05 09:49:00,
2013-10-05 04:50:00,51.1,47.0,28.84,South,180,0.0,0.0,86,0.00,,,0.00,WeatherDisplay:10.37,2013-10-05 09:50:00,
2013-10-05 04:54:00,85.3,72.2,28.70,North,0,1.1,0.0,65,0.00,CLR,,0.00,WeatherDisplay:10.37,2013-10-05 09:54:00,
2013-10-05 04:55:00,51.1,47.0,28.84,South,180,0.0,0.0,86,0.00,,,0.00,WeatherDisplay:10.37,2013-10-05 09:55:00,
2013-10-05 04:59:00,85.3,72.2,28.70,North,0,1.1,0.0,65,0.00,CLR,,0.00,WeatherDisplay:10.37,2013-10-05 09:59:00,
2013-10-05 05:00:00,51.1,47.0,28.84,South,180,0.0,0.0,86,0.00,,,0.00,WeatherDisplay:10.37,2013-10-05 10:00:00,
2013-10-05 05:04:00,85.3,72.2,28.70,North,0,1.1,0.0,65,0.00,CLR,,0.00,WeatherDisplay:10.37,2013-10-05 10:04:00,
2013-10-05 05:05:00,51.1,47.0,28.84,South,180,0.0,0.0,86,0.00,,,0.00,WeatherDisplay:10.37,2013-10-05 10:05:00,
2013-10-05 05:09:00,85.3,72.2,28.70,North,0,1.1,0.0,65,0.00,CLR,,0.00,WeatherDisplay:10.37,2013-10-05 10:09:00,
2013-10-05 05:10:00,51.1,47.0,28.84,South,180,0.0,0.0,86,0.00,,,0.00,WeatherDisplay:10.37,2013-10-05 10:10:00,
2013-10-05 05:14:00,85.3,72.2,28.70,North,0,1.1,0.0,65,0.00,CLR,,0.00,WeatherDisplay:10.37,2013-10-05 10:14:00,
2013-10-05 05:15:00,51.1,47.0,28.84,South,180,0.0,0.0,86,0.00,,,0.00,WeatherDisplay:10.37,2013-10-05 10:15:00,
2013-10-05 05:19:00,85.3,72.2,28.70,North,0,1.1,0.0,65,0.00,CLR,,0.00,WeatherDisplay:10.37,2013-10-05 10:19:00,
2013-10-05 05:20:00,49.5,46.4,28.85,South,180,0.0,0.0,89,0.00,,,0.00,WeatherDisplay:10.37,2013-10-05 10:20:00,
2013-10-05 05:24:00,85.3,72.2,28.70,North,0,1.1,0.0,65,0.00,CLR,,0.00,WeatherDisplay:10.37,2013-10-05 10:24:00,
2013-10-05 05:25:00,49.5,46.4,28.85,South,180,0.0,0.0,89,0.00,,,0.00,WeatherDisplay:10.37,2013-10-05 10:25:00,
2013-10-05 05:29:00,85.3,72.2,28.70,North,0,1.1,0.0,65,0.00,CLR,,0.00,WeatherDisplay:10.37,2013-10-05 10:29:00,
2013-10-05 05:30:00,49.5,46.4,28.85,South,180,0.0,0.0,89,0.00,,,0.00,WeatherDisplay:10.37,2013-10-05 10:30:00,
2013-10-05 05:34:00,85.3,72.2,28.70,North,0,1.1,0.0,65,0.00,CLR,,0.00,WeatherDisplay:10.37,2013-10-05 10:34:00,
2013-10-05 05:35:00,49.5,46.4,28.85,South,180,0.0,0.0,89,0.00,,,0.00,WeatherDisplay:10.37,2013-10-05 10:35:00,
2013-10-05 05:39:00,85.3,72.2,28.70,North,0,1.1,0.0,65,0.00,CLR,,0.00,WeatherDisplay:10.37,2013-10-05 10:39:00,
2013-10-05 05:40:00,49.5,46.4,28.85,South,180,0.0,0.0,89,0.00,,,0.00,WeatherDisplay:10.37,2013-10-05 10:40:00,
2013-10-05 05:44:00,85.3,72.2,28.70,North,0,1.1,0.0,65,0.00,CLR,,0.00,WeatherDisplay:10.37,2013-10-05 10:44:00,
2013-10-05 05:45:00,49.5,46.4,28.85,South,180,0.0,0.0,89,0.00,,,0.00,WeatherDisplay:10.37,2013-10-05 10:45:00,
2013-10-05 05:49:00,85.3,72.2,28.70,North,0,1.1,0.0,65,0.00,CLR,,0.00,WeatherDisplay:10.37,2013-10-05 10:49:00,
2013-10-05 05:50:00,49.3,47.1,28.85,SSW,192,0.0,0.0,92,0.00,,,0.00,WeatherDisplay:10.37,2013-10-05 10:50:00,
2013-10-05 05:54:00,85.3,72.2,28.70,North,0,1.1,0.0,65,0.00,CLR,,0.00,WeatherDisplay:10.37,2013-10-05 10:54:00,
2013-10-05 05:55:00,49.3,47.1,28.85,WNW,291,0.0,0.0,92,0.00,,,0.00,WeatherDisplay:10.37,2013-10-05 10:55:00,
2013-10-05 05:59:00,85.3,72.2,28.70,North,0,1.1,0.0,65,0.00,CLR,,0.00,WeatherDisplay:10.37,2013-10-05 10:59:00,
2013-10-05 06:00:00,49.3,47.1,28.85,NW,315,0.0,0.0,92,0.00,,,0.00,WeatherDisplay:10.37,2013-10-05 11:00:00,
2013-10-05 06:04:00,85.3,72.2,28.70,North,0,1.1,0.0,65,0.00,CLR,,0.00,WeatherDisplay:10.37,2013-10-05 11:04:00,
2013-10-05 06:05:00,49.3,47.1,28.85,NW,315,0.0,0.0,92,0.00,,,0.00,WeatherDisplay:10.37,2013-10-05 11:05:00,
2013-10-05 06:09:00,85.3,72.2,28.70,North,0,1.1,0.0,65,0.00,CLR,,0.00,WeatherDisplay:10.37,2013-10-05 11:09:00,
2013-10-05 06:10:00,49.3,47.1,28.85,NW,315,0.0,0.0,92,0.00,,,0.00,WeatherDisplay:10.37,2013-10-05 11:10:00,
2013-10-05 06:14:00,85.3,72.2,28.70,North,0,1.1,0.0,65,0.00,CLR,,0.00,WeatherDisplay:10.37,2013-10-05 11:14:00,
2013-10-05 06:15:00,49.3,47.1,28.85,NW,315,0.0,0.0,92,0.00,,,0.00,WeatherDisplay:10.37,2013-10-05 11:15:00,
2013-10-05 06:19:00,85.3,72.2,28.70,North,0,1.1,0.0,65,0.00,CLR,,0.00,WeatherDisplay:10.37,2013-10-05 11:19:00,
2013-10-05 06:20:00,50.0,47.2,28.86,NW,315,0.0,0.0,90,0.00,,,0.00,WeatherDisplay:10.37,2013-10-05 11:20:00,
2013-10-05 06:24:00,85.3,72.2,28.70,North,0,1.1,0.0,65,0.00,CLR,,0.00,WeatherDisplay:10.37,2013-10-05 11:24:00,
2013-10-05 06:25:00,50.0,47.2,28.86,NW,315,0.0,0.0,90,0.00,,,0.00,WeatherDisplay:10.37,2013-10-05 11:25:00,
2013-10-05 06:29:00,85.3,72.2,28.70,North,0,1.1,0.0,65,0.00,CLR,,0.00,WeatherDisplay:10.37,2013-10-05 11:29:00,
2013-10-05 06:30:00,50.0,47.2,28.86,NW,315,0.0,0.0,90,0.00,,,0.00,WeatherDisplay:10.37,2013-10-05 11:30:00,
2013-10-05 06:34:00,85.3,72.2,28.70,North,0,1.1,0.0,65,0.00,CLR,,0.00,WeatherDisplay:10.37,2013-10-05 11:34:00,
2013-10-05 06:35:00,50.0,47.2,28.86,NW,315,0.0,0.0,90,0.00,,,0.00,WeatherDisplay:10.37,2013-10-05 11:35:00,
2013-10-05 06:39:00,85.3,72.2,28.70,North,0,1.1,0.0,65,0.00,CLR,,0.00,WeatherDisplay:10.37,2013-10-05 11:39:00,
2013-10-05 06:40:00,50.0,47.2,28.86,NW,315,0.0,0.0,90,0.00,,,0.00,WeatherDisplay:10.37,2013-10-05 11:40:00,
2013-10-05 06:44:00,85.3,72.2,28.70,North,0,1.1,0.0,65,0.00,CLR,,0.00,WeatherDisplay:10.37,2013-10-05 11:44:00,
2013-10-05 06:45:00,50.0,47.2,28.86,NW,315,0.0,0.0,90,0.00,,,0.00,WeatherDisplay:10.37,2013-10-05 11:45:00,
2013-10-05 06:49:00,85.3,72.2,28.70,North,0,1.1,0.0,65,0.00,CLR,,0.00,WeatherDisplay:10.37,2013-10-05 11:49:00,
2013-10-05 06:50:00,49.3,45.0,28.86,NW,306,0.0,0.0,85,0.00,,,0.00,WeatherDisplay:10.37,2013-10-05 11:50:00,
2013-10-05 06:54:00,85.3,72.2,28.70,North,0,1.1,0.0,65,0.00,CLR,,0.00,WeatherDisplay:10.37,2013-10-05 11:54:00,
2013-10-05 06:55:00,49.3,45.0,28.86,WNW,283,0.0,0.0,85,0.00,,,0.00,WeatherDisplay:10.37,2013-10-05 11:55:00,
2013-10-05 06:59:00,85.3,72.2,28.70,North,0,1.1,0.0,65,0.00,CLR,,0.00,WeatherDisplay:10.37,2013-10-05 11:59:00,
2013-10-05 07:00:00,49.3,45.0,28.86,West,270,0.0,0.0,85,0.00,,,0.00,WeatherDisplay:10.37,2013-10-05 12:00:00,
2013-10-05 07:04:00,85.3,72.2,28.70,North,0,1.1,0.0,65,0.00,CLR,,0.00,WeatherDisplay:10.37,2013-10-05 12:04:00,
2013-10-05 07:05:00,49.3,45.0,28.86,West,270,0.0,0.0,85,0.00,,,0.00,WeatherDisplay:10.37,2013-10-05 12:05:00,
2013-10-05 07:09:00,85.3,72.2,28.70,North,0,1.1,0.0,65,0.00,CLR,,0.00,WeatherDisplay:10.37,2013-10-05 12:09:00,
2013-10-05 07:10:00,49.3,45.0,28.86,West,270,0.0,0.0,85,0.00,,,0.00,WeatherDisplay:10.37,2013-10-05 12:10:00,
2013-10-05 07:14:00,85.3,72.2,28.70,North,0,1.1,0.0,65,0.00,CLR,,0.00,WeatherDisplay:10.37,2013-10-05 12:14:00,
2013-10-05 07:15:00,49.3,45.0,28.86,West,270,0.0,0.0,85,0.00,,,0.00,WeatherDisplay:10.37,2013-10-05 12:15:00,
2013-10-05 07:19:00,85.3,72.2,28.70,North,0,1.1,0.0,65,0.00,CLR,,0.00,WeatherDisplay:10.37,2013-10-05 12:19:00,
2013-10-05 07:20:00,49.3,43.7,28.86,WNW,284,0.0,0.0,81,0.00,,,0.00,WeatherDisplay:10.37,2013-10-05 12:20:00,
2013-10-05 07:24:00,85.3,72.2,28.70,North,0,1.1,0.0,65,0.00,CLR,,0.00,WeatherDisplay:10.37,2013-10-05 12:24:00,
2013-10-05 07:25:00,49.3,43.7,28.86,NNW,337,0.0,0.0,81,0.00,,,0.00,WeatherDisplay:10.37,2013-10-05 12:25:00,
2013-10-05 07:29:00,85.3,72.2,28.70,North,0,1.1,0.0,65,0.00,CLR,,0.00,WeatherDisplay:10.37,2013-10-05 12:29:00,
2013-10-05 07:30:00,49.3,43.7,28.86,North,0,0.0,0.0,81,0.00,,,0.00,WeatherDisplay:10.37,2013-10-05 12:30:00,
2013-10-05 07:34:00,85.3,72.2,28.70,North,0,1.1,0.0,65,0.00,CLR,,0.00,WeatherDisplay:10.37,2013-10-05 12:34:00,
2013-10-05 07:35:00,49.3,43.7,28.86,North,0,0.0,0.0,81,0.00,,,0.00,WeatherDisplay:10.37,2013-10-05 12:35:00,
2013-10-05 07:39:00,85.3,72.2,28.70,North,0,1.1,0.0,65,0.00,CLR,,0.00,WeatherDisplay:10.37,2013-10-05 12:39:00,
2013-10-05 07:40:00,49.3,43.7,28.86,North,0,0.0,0.0,81,0.00,,,0.00,WeatherDisplay:10.37,2013-10-05 12:40:00,
2013-10-05 07:44:00,85.3,72.2,28.70,North,0,1.1,0.0,65,0.00,CLR,,0.00,WeatherDisplay:10.37,2013-10-05 12:44:00,
2013-10-05 07:45:00,49.3,43.7,28.86,North,0,0.0,0.0,81,0.00,,,0.00,WeatherDisplay:10.37,2013-10-05 12:45:00,
2013-10-05 07:49:00,85.3,72.2,28.70,North,0,1.1,0.0,65,0.00,CLR,,0.00,WeatherDisplay:10.37,2013-10-05 12:49:00,
2013-10-05 07:50:00,47.8,42.3,28.86,NNW,346,0.0,0.0,81,0.00,,,0.00,WeatherDisplay:10.37,2013-10-05 12:50:00,
2013-10-05 07:54:00,85.3,72.2,28.70,North,0,1.1,0.0,65,0.00,CLR,,0.00,WeatherDisplay:10.37,2013-10-05 12:54:00,
2013-10-05 07:55:00,47.8,42.3,28.86,WNW,293,0.0,0.0,81,0.00,,,0.00,WeatherDisplay:10.37,2013-10-05 12:55:00,
2013-10-05 07:59:00,85.3,72.2,28.70,North,0,1.1,0.0,65,0.00,CLR,,0.00,WeatherDisplay:10.37,2013-10-05 12:59:00,
2013-10-05 08:00:00,47.8,42.3,28.86,West,270,0.0,0.0,81,0.00,,,0.00,WeatherDisplay:10.37,2013-10-05 13:00:00,
2013-10-05 08:04:00,85.3,72.2,28.70,North,0,1.1,0.0,65,0.00,CLR,,0.00,WeatherDisplay:10.37,2013-10-05 13:04:00,
2013-10-05 08:05:00,47.8,42.3,28.86,West,270,0.0,0.0,81,0.00,,,0.00,WeatherDisplay:10.37,2013-10-05 13:05:00,
2013-10-05 08:09:00,85.3,72.2,28.70,North,0,1.1,0.0,65,0.00,CLR,,0.00,WeatherDisplay:10.37,2013-10-05 13:09:00,
2013-10-05 08:10:00,47.8,42.3,28.86,West,270,0.0,0.0,81,0.00,,,0.00,WeatherDisplay:10.37,2013-10-05 13:10:00,
2013-10-05 08:14:00,85.3,72.2,28.70,North,0,1.1,0.0,65,0.00,CLR,,0.00,WeatherDisplay:10.37,2013-10-05 13:14:00,
2013-10-05 08:15:00,47.8,42.3,28.86,West,270,0.0,0.0,81,0.00,,,0.00,WeatherDisplay:10.37,2013-10-05 13:15:00,
2013-10-05 08:19:00,85.3,72.2,28.70,North,0,1.1,0.0,65,0.00,CLR,,0.00,WeatherDisplay:10.37,2013-10-05 13:19:00,
2013-10-05 08:20:00,46.9,41.7,28.86,WSW,258,0.0,2.0,82,0.00,,,0.00,WeatherDisplay:10.37,2013-10-05 13:20:00,
2013-10-05 08:24:00,85.3,72.2,28.70,North,0,1.1,0.0,65,0.00,CLR,,0.00,WeatherDisplay:10.37,2013-10-05 13:24:00,
2013-10-05 08:25:00,46.9,41.7,28.86,SSE,159,0.0,2.0,82,0.00,,,0.00,WeatherDisplay:10.37,2013-10-05 13:25:00,
2013-10-05 08:29:00,85.3,72.2,28.70,North,0,1.1,0.0,65,0.00,CLR,,0.00,WeatherDisplay:10.37,2013-10-05 13:29:00,
2013-10-05 08:30:00,46.9,41.7,28.86,SE,135,0.0,2.0,82,0.00,,,0.00,WeatherDisplay:10.37,2013-10-05 13:30:00,
2013-10-05 08:34:00,85.3,72.2,28.70,North,0,1.1,0.0,65,0.00,CLR,,0.00,WeatherDisplay:10.37,2013-10-05 13:34:00,
2013-10-05 08:35:00,46.9,41.7,28.86,SE,135,0.0,2.0,82,0.00,,,0.00,WeatherDisplay:10.37,2013-10-05 13:35:00,
2013-10-05 08:39:00,85.3,72.2,28.70,North,0,1.1,0.0,65,0.00,CLR,,0.00,WeatherDisplay:10.37,2013-10-05 13:39:00,
2013-10-05 08:40:00,46.9,41.7,28.86,SE,135,0.0,2.0,82,0.00,,,0.00,WeatherDisplay:10.37,2013-10-05 13:40:00,
2013-10-05 08:44:00,85.3,72.2,28.70,North,0,1.1,0.0,65,0.00,CLR,,0.00,WeatherDisplay:10.37,2013-10-05 13:44:00,
2013-10-05 08:45:00,46.9,41.7,28.86,SE,135,0.0,2.0,82,0.00,,,0.00,WeatherDisplay:10.37,2013-10-05 13:45:00,
2013-10-05 08:49:00,85.3,72.2,28.70,North,0,1.1,0.0,65,0.00,CLR,,0.00,WeatherDisplay:10.37,2013-10-05 13:49:00,
2013-10-05 08:50:00,46.0,42.1,28.87,SE,135,0.0,2.0,86,0.00,,,0.00,WeatherDisplay:10.37,2013-10-05 13:50:00,
2013-10-05 08:54:00,85.3,72.2,28.70,North,0,1.1,0.0,65,0.00,CLR,,0.00,WeatherDisplay:10.37,2013-10-05 13:54:00,
2013-10-05 08:55:00,46.0,42.1,28.87,SE,135,0.0,0.0,86,0.00,,,0.00,WeatherDisplay:10.37,2013-10-05 13:55:00,
2013-10-05 08:59:00,85.3,72.2,28.70,North,0,1.1,0.0,65,0.00,CLR,,0.00,WeatherDisplay:10.37,2013-10-05 13:59:00,
2013-10-05 09:00:00,46.0,42.1,28.87,SE,135,0.0,0.0,86,0.00,,,0.00,WeatherDisplay:10.37,2013-10-05 14:00:00,
2013-10-05 09:04:00,85.3,72.2,28.70,North,0,1.1,0.0,65,0.00,CLR,,0.00,WeatherDisplay:10.37,2013-10-05 14:04:00,
2013-10-05 09:05:00,46.0,42.1,28.87,SE,135,0.0,0.0,86,0.00,,,0.00,WeatherDisplay:10.37,2013-10-05 14:05:00,
2013-10-05 09:09:00,85.3,72.2,28.70,North,0,1.1,0.0,65,0.00,CLR,,0.00,WeatherDisplay:10.37,2013-10-05 14:09:00,
2013-10-05 09:10:00,46.0,42.1,28.87,SE,135,0.0,0.0,86,0.00,,,0.00,WeatherDisplay:10.37,2013-10-05 14:10:00,
2013-10-05 09:14:00,85.3,72.2,28.70,North,0,1.1,0.0,65,0.00,CLR,,0.00,WeatherDisplay:10.37,2013-10-05 14:14:00,
2013-10-05 09:15:00,46.0,42.1,28.87,SE,135,0.0,0.0,86,0.00,,,0.00,WeatherDisplay:10.37,2013-10-05 14:15:00,
2013-10-05 09:19:00,85.3,72.2,28.70,North,0,1.1,0.0,65,0.00,CLR,,0.00,WeatherDisplay:10.37,2013-10-05 14:19:00,
2013-10-05 09:20:00,45.0,41.3,28.88,SE,135,0.0,0.0,87,0.00,,,0.00,WeatherDisplay:10.37,2013-10-05 14:20:00,
2013-10-05 09:24:00,85.3,72.2,28.70,North,0,1.1,0.0,65,0.00,CLR,,0.00,WeatherDisplay:10.37,2013-10-05 14:24:00,
2013-10-05 09:25:00,45.0,41.3,28.88,NW,315,0.0,0.0,87,0.00,,,0.00,WeatherDisplay:10.37,2013-10-05 14:25:00,
2013-10-05 09:29:00,85.3,72.2,28.70,North,0,1.1,0.0,65,0.00,CLR,,0.00,WeatherDisplay:10.37,2013-10-05 14:29:00,
2013-10-05 09:30:00,45.0,41.3,28.88,NW,315,0.0,0.0,87,0.00,,,0.00,WeatherDisplay:10.37,2013-10-05 14:30:00,
2013-10-05 09:34:00,85.3,72.2,28.70,North,0,1.1,0.0,65,0.00,CLR,,0.00,WeatherDisplay:10.37,2013-10-05 14:34:00,
2013-10-05 09:35:00,45.0,41.3,28.88,NW,315,0.0,0.0,87,0.00,,,0.00,WeatherDisplay:10.37,2013-10-05 14:35:00,
2013-10-05 09:39:00,85.3,72.2,28.70,North,0,1.1,0.0,65,0.00,CLR,,0.00,WeatherDisplay:10.37,2013-10-05 14:39:00,
2013-10-05 09:40:00,45.0,41.3,28.88,NW,315,0.0,0.0,87,0.00,,,0.00,WeatherDisplay:10.37,2013-10-05 14:40:00,
2013-10-05 09:44:00,85.3,72.2,28.70,North,0,1.1,0.0,65,0.00,CLR,,0.00,WeatherDisplay:10.37,2013-10-05 14:44:00,
2013-10-05 09:45:00,45.0,41.3,28.88,NW,315,0.0,0.0,87,0.00,,,0.00,WeatherDisplay:10.37,2013-10-05 14:45:00,
2013-10-05 09:49:00,85.3,72.2,28.70,North,0,1.1,0.0,65,0.00,CLR,,0.00,WeatherDisplay:10.37,2013-10-05 14:49:00,
2013-10-05 09:50:00,45.0,41.0,28.89,NW,324,0.0,0.0,86,0.00,,,0.00,WeatherDisplay:10.37,2013-10-05 14:50:00,
2013-10-05 09:54:00,85.3,72.2,28.70,North,0,1.1,0.0,65,0.00,CLR,,0.00,WeatherDisplay:10.37,2013-10-05 14:54:00,
2013-10-05 09:55:00,45.0,41.0,28.89,NNW,347,0.0,0.0,86,0.00,,,0.00,WeatherDisplay:10.37,2013-10-05 14:55:00,
2013-10-05 09:59:00,85.3,72.2,28.70,North,0,1.1,0.0,65,0.00,CLR,,0.00,WeatherDisplay:10.37,2013-10-05 14:59:00,
2013-10-05 10:00:00,45.0,41.0,28.89,North,0,0.0,0.0,86,0.00,,,0.00,WeatherDisplay:10.37,2013-10-05 15:00:00,
2013-10-05 10:04:00,85.3,72.2,28.70,North,0,1.1,0.0,65,0.00,CLR,,0.00,WeatherDisplay:10.37,2013-10-05 15:04:00,
2013-10-05 10:05:00,45.0,41.0,28.89,North,0,0.0,0.0,86,0.00,,,0.00,WeatherDisplay:10.37,2013-10-05 15:05:00,
2013-10-05 10:09:00,85.3,72.2,28.70,North,0,1.1,0.0,65,0.00,CLR,,0.00,WeatherDisplay:10.37,2013-10-05 15:09:00,
2013-10-05 10:10:00,45.0,41.0,28.89,North,0,0.0,0.0,86,0.00,,,0.00,WeatherDisplay:10.37,2013-10-05 15:10:00,
2013-10-05 10:14:00,85.3,72.2,28.70,North,0,1.1,0.0,65,0.00,CLR,,0.00,WeatherDisplay:10.37,2013-10-05 15:14:00,
2013-10-05 10:15:00,45.0,41.0,28.89,North,0,0.0,0.0,86,0.00,,,0.00,WeatherDisplay:10.37,2013-10-05 15:15:00,
2013-10-05 10:19:00,85.3,72.2,28.70,North,0,1.1,0.0,65,0.00,CLR,,0.00,WeatherDisplay:10.37,2013-10-05 15:19:00,
2013-10-05 10:20:00,47.8,41.6,28.88,NNW,346,0.0,0.0,79,0.00,,,0.00,WeatherDisplay:10.37,2013-10-05 15:20:00,
2013-10-05 10:24:00,85.3,72.2,28.70,North,0,1.1,0.0,65,0.00,CLR,,0.00,WeatherDisplay:10.37,2013-10-05 15:24:00,
2013-10-05 10:25:00,47.8,41.6,28.88,WNW,293,0.0,0.0,79,0.00,,,0.00,WeatherDisplay:10.37,2013-10-05 15:25:00,
2013-10-05 10:29:00,85.3,72.2,28.70,North,0,1.1,0.0,65,0.00,CLR,,0.00,WeatherDisplay:10.37,2013-10-05 15:29:00,
2013-10-05 10:30:00,47.8,41.6,28.88,West,270,0.0,0.0,79,0.00,,,0.00,WeatherDisplay:10.37,2013-10-05 15:30:00,
2013-10-05 10:34:00,85.3,72.2,28.70,North,0,1.1,0.0,65,0.00,CLR,,0.00,WeatherDisplay:10.37,2013-10-05 15:34:00,
2013-10-05 10:35:00,47.8,41.6,28.88,West,270,0.0,0.0,79,0.00,,,0.00,WeatherDisplay:10.37,2013-10-05 15:35:00,
2013-10-05 10:39:00,85.3,72.2,28.70,North,0,1.1,0.0,65,0.00,CLR,,0.00,WeatherDisplay:10.37,2013-10-05 15:39:00,
2013-10-05 10:40:00,47.8,41.6,28.88,West,270,0.0,0.0,79,0.00,,,0.00,WeatherDisplay:10.37,2013-10-05 15:40:00,
2013-10-05 10:44:00,85.3,72.2,28.70,North,0,1.1,0.0,65,0.00,CLR,,0.00,WeatherDisplay:10.37,2013-10-05 15:44:00,
2013-10-05 10:45:00,47.8,41.6,28.88,West,270,0.0,0.0,79,0.00,,,0.00,WeatherDisplay:10.37,2013-10-05 15:45:00,
2013-10-05 10:49:00,85.3,72.2,28.70,North,0,1.1,0.0,65,0.00,CLR,,0.00,WeatherDisplay:10.37,2013-10-05 15:49:00,
2013-10-05 10:50:00,46.2,40.4,28.89,WNW,284,0.0,0.0,80,0.00,,,0.00,WeatherDisplay:10.37,2013-10-05 15:50:00,
2013-10-05 10:54:00,85.3,72.2,28.70,North,0,1.1,0.0,65,0.00,CLR,,0.00,WeatherDisplay:10.37,2013-10-05 15:54:00,
2013-10-05 10:55:00,46.2,40.4,28.89,NNW,337,0.0,0.0,80,0.00,,,0.00,WeatherDisplay:10.37,2013-10-05 15:55:00,
2013-10-05 10:59:00,85.3,72.2,28.70,North,0,1.1,0.0,65,0.00,CLR,,0.00,WeatherDisplay:10.37,2013-10-05 15:59:00,
2013-10-05 11:00:00,46.2,40.4,28.89,North,0,0.0,0.0,80,0.00,,,0.00,WeatherDisplay:10.37,2013-10-05 16:00:00,
2013-10-05 11:04:00,85.3,72.2,28.70,North,0,1.1,0.0,65,0.00,CLR,,0.00,WeatherDisplay:10.37,2013-10-05 16:04:00,
2013-10-05 11:05:00,46.2,40.4,28.89,North,0,0.0,0.0,80,0.00,,,0.00,WeatherDisplay:10.37,2013-10-05 16:05:00,
2013-10-05 11:09:00,85.3,72.2,28.70,North,0,1.1,0.0,65,0.00,CLR,,0.00,WeatherDisplay:10.37,2013-10-05 16:09:00,
2013-10-05 11:10:00,46.2,40.4,28.89,North,0,0.0,0.0,80,0.00,,,0.00,WeatherDisplay:10.37,2013-10-05 16:10:00,
2013-10-05 11:14:00,85.3,72.2,28.70,North,0,1.1,0.0,65,0.00,CLR,,0.00,WeatherDisplay:10.37,2013-10-05 16:14:00,
2013-10-05 11:15:00,46.2,40.4,28.89,North,0,0.0,0.0,80,0.00,,,0.00,WeatherDisplay:10.37,2013-10-05 16:15:00,
2013-10-05 11:19:00,85.3,72.2,28.70,North,0,1.1,0.0,65,0.00,CLR,,0.00,WeatherDisplay:10.37,2013-10-05 16:19:00,
2013-10-05 11:20:00,44.8,39.9,28.90,North,0,0.0,0.0,83,0.00,,,0.00,WeatherDisplay:10.37,2013-10-05 16:20:00,
2013-10-05 11:24:00,85.3,72.2,28.70,North,0,1.1,0.0,65,0.00,CLR,,0.00,WeatherDisplay:10.37,2013-10-05 16:24:00,
2013-10-05 11:25:00,44.8,39.9,28.90,North,0,0.0,0.0,83,0.00,,,0.00,WeatherDisplay:10.37,2013-10-05 16:25:00,
2013-10-05 11:29:00,85.3,72.2,28.70,North,0,1.1,0.0,65,0.00,CLR,,0.00,WeatherDisplay:10.37,2013-10-05 16:29:00,
2013-10-05 11:30:00,44.8,39.9,28.90,North,0,0.0,0.0,83,0.00,,,0.00,WeatherDisplay:10.37,2013-10-05 16:30:00,
2013-10-05 11:34:00,85.3,72.2,28.70,North,0,1.1,0.0,65,0.00,CLR,,0.00,WeatherDisplay:10.37,2013-10-05 16:34:00,
2013-10-05 11:35:00,44.8,39.9,28.90,North,0,0.0,0.0,83,0.00,,,0.00,WeatherDisplay:10.37,2013-10-05 16:35:00,
2013-10-05 11:39:00,85.3,72.2,28.70,North,0,1.1,0.0,65,0.00,CLR,,0.00,WeatherDisplay:10.37,2013-10-05 16:39:00,
2013-10-05 11:40:00,44.8,39.9,28.90,North,0,0.0,0.0,83,0.00,,,0.00,WeatherDisplay:10.37,2013-10-05 16:40:00,
2013-10-05 11:44:00,85.3,72.2,28.70,North,0,1.1,0.0,65,0.00,CLR,,0.00,WeatherDisplay:10.37,2013-10-05 16:44:00,
2013-10-05 11:45:00,44.8,39.9,28.90,North,0,0.0,0.0,83,0.00,,,0.00,WeatherDisplay:10.37,2013-10-05 16:45:00,
2013-10-05 11:49:00,85.3,72.2,28.70,North,0,1.1,0.0,65,0.00,CLR,,0.00,WeatherDisplay:10.37,2013-10-05 16:49:00,
2013-10-05 11:50:00,43.7,40.1,28.90,North,0,0.0,0.0,87,0.00,,,0.00,WeatherDisplay:10.37,2013-10-05 16:50:00,
2013-10-05 11:54:00,85.3,72.2,28.70,North,0,1.1,0.0,65,0.00,CLR,,0.00,WeatherDisplay:10.37,2013-10-05 16:54:00,
2013-10-05 11:55:00,43.7,40.1,28.90,North,0,0.0,0.0,87,0.00,,,0.00,WeatherDisplay:10.37,2013-10-05 16:55:00,
2013-10-05 11:59:00,85.3,72.2,28.70,North,0,1.1,0.0,65,0.00,CLR,,0.00,WeatherDisplay:10.37,2013-10-05 16:59:00,
2013-10-05 12:00:00,43.7,40.1,28.90,North,0,0.0,0.0,87,0.00,,,0.00,WeatherDisplay:10.37,2013-10-05 17:00:00,
2013-10-05 12:04:00,85.3,72.2,28.70,North,0,1.1,0.0,65,0.00,CLR,,0.00,WeatherDisplay:10.37,2013-10-05 17:04:00,
2013-10-05 12:05:00,43.7,40.1,28.90,North,0,0.0,0.0,87,0.00,,,0.00,WeatherDisplay:10.37,2013-10-05 17:05:00,
2013-10-05 12:09:00,85.3,72.2,28.70,North,0,1.1,0.0,65,0.00,CLR,,0.00,WeatherDisplay:10.37,2013-10-05 17:09:00,
2013-10-05 12:10:00,43.7,40.1,28.90,North,0,0.0,0.0,87,0.00,,,0.00,WeatherDisplay:10.37,2013-10-05 17:10:00,
2013-10-05 12:14:00,85.3,72.2,28.70,North,0,1.1,0.0,65,0.00,CLR,,0.00,WeatherDisplay:10.37,2013-10-05 17:14:00,
2013-10-05 12:15:00,43.7,40.1,28.90,North,0,0.0,0.0,87,0.00,,,0.00,WeatherDisplay:10.37,2013-10-05 17:15:00,
2013-10-05 12:19:00,85.3,72.2,28.70,North,0,1.1,0.0,65,0.00,CLR,,0.00,WeatherDisplay:10.37,2013-10-05 17:19:00,
2013-10-05 12:20:00,43.5,40.5,28.91,North,0,0.0,0.0,89,0.00,,,0.00,WeatherDisplay:10.37,2013-10-05 17:20:00,
2013-10-05 12:24:00,85.3,72.2,28.70,North,0,1.1,0.0,65,0.00,CLR,,0.00,WeatherDisplay:10.37,2013-10-05 17:24:00,
2013-10-05 12:25:00,43.5,40.5,28.91,North,0,0.0,0.0,89,0.00,,,0.00,WeatherDisplay:10.37,2013-10-05 17:25:00,
2013-10-05 12:29:00,85.3,72.2,28.70,North,0,1.1,0.0,65,0.00,CLR,,0.00,WeatherDisplay:10.37,2013-10-05 17:29:00,
2013-10-05 12:30:00,43.5,40.5,28.91,North,0,0.0,0.0,89,0.00,,,0.00,WeatherDisplay:10.37,2013-10-05 17:30:00,
2013-10-05 12:34:00,85.3,72.2,28.70,North,0,1.1,0.0,65,0.00,CLR,,0.00,WeatherDisplay:10.37,2013-10-05 17:34:00,
2013-10-05 12:35:00,43.5,40.5,28.91,North,0,0.0,0.0,89,0.00,,,0.00,WeatherDisplay:10.37,2013-10-05 17:35:00,
2013-10-05 12:39:00,85.3,72.2,28.70,North,0,1.1,0.0,65,0.00,CLR,,0.00,WeatherDisplay:10.37,2013-10-05 17:39:00,
2013-10-05 12:40:00,43.5,40.5,28.91,North,0,0.0,0.0,89,0.00,,,0.00,WeatherDisplay:10.37,2013-10-05 17:40:00,
2013-10-05 12:44:00,85.3,72.2,28.70,North,0,1.1,0.0,65,0.00,CLR,,0.00,WeatherDisplay:10.37,2013-10-05 17:44:00,
2013-10-05 12:45:00,43.5,40.5,28.91,North,0,0.0,0.0,89,0.00,,,0.00,WeatherDisplay:10.37,2013-10-05 17:45:00,
2013-10-05 12:49:00,85.3,72.2,28.70,North,0,1.1,0.0,65,0.00,CLR,,0.00,WeatherDisplay:10.37,2013-10-05 17:49:00,
2013-10-05 12:50:00,43.5,40.5,28.92,North,351,0.0,0.0,89,0.00,,,0.00,WeatherDisplay:10.37,2013-10-05 17:50:00,
2013-10-05 12:54:00,85.3,72.2,28.70,North,0,1.1,0.0,65,0.00,CLR,,0.00,WeatherDisplay:10.37,2013-10-05 17:54:00,
2013-10-05 12:55:00,43.5,40.5,28.92,NNW,328,0.0,0.0,89,0.00,,,0.00,WeatherDisplay:10.37,2013-10-05 17:55:00,
2013-10-05 12:59:00,85.3,72.2,28.70,North,0,1.1,0.0,65,0.00,CLR,,0.00,WeatherDisplay:10.37,2013-10-05 17:59:00,
2013-10-05 13:00:00,43.5,40.5,28.92,NW,315,0.0,0.0,89,0.00,,,0.00,WeatherDisplay:10.37,2013-10-05 18:00:00,
2013-10-05 13:04:00,85.3,72.2,28.70,North,0,1.1,0.0,65,0.00,CLR,,0.00,WeatherDisplay:10.37,2013-10-05 18:04:00,
2013-10-05 13:05:00,43.5,40.5,28.92,NW,315,0.0,0.0,89,0.00,,,0.00,WeatherDisplay:10.37,2013-10-05 18:05:00,
2013-10-05 13:09:00,85.3,72.2,28.70,North,0,1.1,0.0,65,0.00,CLR,,0.00,WeatherDisplay:10.37,2013-10-05 18:09:00,
2013-10-05 13:10:00,43.5,40.5,28.92,NW,315,0.0,0.0,89,0.00,,,0.00,WeatherDisplay:10.37,2013-10-05 18:10:00,
2013-10-05 13:14:00,85.3,72.2,28.70,North,0,1.1,0.0,65,0.00,CLR,,0.00,WeatherDisplay:10.37,2013-10-05 18:14:00,
2013-10-05 13:15:00,43.5,40.5,28.92,NW,315,0.0,0.0,89,0.00,,,0.00,WeatherDisplay:10.37,2013-10-05 18:15:00,
2013-10-05 13:19:00,85.3,72.2,28.70,North,0,1.1,0.0,65,0.00,CLR,,0.00,WeatherDisplay:10.37,2013-10-05 18:19:00,
2013-10-05 13:20:00,44.2,41.5,28.92,NW,306,0.0,0.0,90,0.00,,,0.00,WeatherDisplay:10.37,2013-10-05 18:20:00,
2013-10-05 13:24:00,85.3,72.2,28.70,North,0,1.1,0.0,65,0.00,CLR,,0.00,WeatherDisplay:10.37,2013-10-05 18:24:00,
2013-10-05 13:25:00,44.2,41.5,28.92,WNW,283,0.0,0.0,90,0.00,,,0.00,WeatherDisplay:10.37,2013-10-05 18:25:00,
2013-10-05 13:29:00,85.3,72.2,28.70,North,0,1.1,0.0,65,0.00,CLR,,0.00,WeatherDisplay:10.37,2013-10-05 18:29:00,
2013-10-05 13:30:00,44.2,41.5,28.92,West,270,0.0,0.0,90,0.00,,,0.00,WeatherDisplay:10.37,2013-10-05 18:30:00,
2013-10-05 13:34:00,85.3,72.2,28.70,North,0,1.1,0.0,65,0.00,CLR,,0.00,WeatherDisplay:10.37,2013-10-05 18:34:00,
2013-10-05 13:35:00,44.2,41.5,28.92,West,270,0.0,0.0,90,0.00,,,0.00,WeatherDisplay:10.37,2013-10-05 18:35:00,
2013-10-05 13:39:00,85.3,72.2,28.70,North,0,1.1,0.0,65,0.00,CLR,,0.00,WeatherDisplay:10.37,2013-10-05 18:39:00,
2013-10-05 13:40:00,44.2,41.5,28.92,West,270,0.0,0.0,90,0.00,,,0.00,WeatherDisplay:10.37,2013-10-05 18:40:00,
2013-10-05 13:44:00,85.3,72.2,28.70,North,0,1.1,0.0,65,0.00,CLR,,0.00,WeatherDisplay:10.37,2013-10-05 18:44:00,
2013-10-05 13:45:00,44.2,41.5,28.92,West,270,0.0,0.0,90,0.00,,,0.00,WeatherDisplay:10.37,2013-10-05 18:45:00,
2013-10-05 13:49:00,85.3,72.2,28.70,North,0,1.1,0.0,65,0.00,CLR,,0.00,WeatherDisplay:10.37,2013-10-05 18:49:00,
2013-10-05 13:50:00,44.2,41.5,28.93,WNW,282,0.0,0.0,90,0.00,,,0.00,WeatherDisplay:10.37,2013-10-05 18:50:00,
2013-10-05 13:54:00,85.3,72.2,28.70,North,0,1.1,0.0,65,0.00,CLR,,0.00,WeatherDisplay:10.37,2013-10-05 18:54:00,
2013-10-05 13:55:00,44.2,41.5,28.93,NNE,21,0.0,0.0,90,0.00,,,0.00,WeatherDisplay:10.37,2013-10-05 18:55:00,
2013-10-05 13:59:00,85.3,72.2,28.70,North,0,1.1,0.0,65,0.00,CLR,,0.00,WeatherDisplay:10.37,2013-10-05 18:59:00,
2013-10-05 14:00:00,44.2,41.5,28.93,NE,45,0.0,0.0,90,0.00,,,0.00,WeatherDisplay:10.37,2013-10-05 19:00:00,
2013-10-05 14:04:00,85.3,72.2,28.70,North,0,1.1,0.0,65,0.00,CLR,,0.00,WeatherDisplay:10.37,2013-10-05 19:04:00,
2013-10-05 14:05:00,44.2,41.5,28.93,NE,45,0.0,0.0,90,0.00,,,0.00,WeatherDisplay:10.37,2013-10-05 19:05:00,
2013-10-05 14:09:00,85.3,72.2,28.70,North,0,1.1,0.0,65,0.00,CLR,,0.00,WeatherDisplay:10.37,2013-10-05 19:09:00,
2013-10-05 14:10:00,44.2,41.5,28.93,NE,45,0.0,0.0,90,0.00,,,0.00,WeatherDisplay:10.37,2013-10-05 19:10:00,
2013-10-05 14:14:00,85.3,72.2,28.70,North,0,1.1,0.0,65,0.00,CLR,,0.00,WeatherDisplay:10.37,2013-10-05 19:14:00,
2013-10-05 14:15:00,44.2,41.5,28.93,NE,45,0.0,0.0,90,0.00,,,0.00,WeatherDisplay:10.37,2013-10-05 19:15:00,
2013-10-05 14:19:00,85.3,72.2,28.70,North,0,1.1,0.0,65,0.00,CLR,,0.00,WeatherDisplay:10.37,2013-10-05 19:19:00,
2013-10-05 14:20:00,46.4,43.0,28.94,NE,36,0.0,0.0,88,0.00,,,0.00,WeatherDisplay:10.37,2013-10-05 19:20:00,
2013-10-05 14:24:00,85.3,72.2,28.70,North,0,1.1,0.0,65,0.00,CLR,,0.00,WeatherDisplay:10.37,2013-10-05 19:24:00,
2013-10-05 14:25:00,46.4,43.0,28.94,NNE,13,0.0,0.0,88,0.00,,,0.00,WeatherDisplay:10.37,2013-10-05 19:25:00,
2013-10-05 14:29:00,85.3,72.2,28.70,North,0,1.1,0.0,65,0.00,CLR,,0.00,WeatherDisplay:10.37,2013-10-05 19:29:00,
2013-10-05 14:30:00,46.4,43.0,28.94,North,0,0.0,0.0,88,0.00,,,0.00,WeatherDisplay:10.37,2013-10-05 19:30:00,
2013-10-05 14:34:00,85.3,72.2,28.70,North,0,1.1,0.0,65,0.00,CLR,,0.00,WeatherDisplay:10.37,2013-10-05 19:34:00,
2013-10-05 14:35:00,46.4,43.0,28.94,North,0,0.0,0.0,88,0.00,,,0.00,WeatherDisplay:10.37,2013-10-05 19:35:00,
2013-10-05 14:39:00,85.3,72.2,28.70,North,0,1.1,0.0,65,0.00,CLR,,0.00,WeatherDisplay:10.37,2013-10-05 19:39:00,
2013-10-05 14:40:00,46.4,43.0,28.94,North,0,0.0,0.0,88,0.00,,,0.00,WeatherDisplay:10.37,2013-10-05 19:40:00,
2013-10-05 14:44:00,85.3,72.2,28.70,North,0,1.1,0.0,65,0.00,CLR,,0.00,WeatherDisplay:10.37,2013-10-05 19:44:00,
2013-10-05 14:45:00,46.4,43.0,28.94,North,0,0.0,0.0,88,0.00,,,0.00,WeatherDisplay:10.37,2013-10-05 19:45:00,
2013-10-05 14:49:00,85.3,72.2,28.70,North,0,1.1,0.0,65,0.00,CLR,,0.00,WeatherDisplay:10.37,2013-10-05 19:49:00,
2013-10-05 14:50:00,46.2,42.6,28.95,North,351,0.0,0.0,87,0.00,,,0.00,WeatherDisplay:10.37,2013-10-05 19:50:00,
2013-10-05 14:54:00,85.3,72.2,28.70,North,0,1.1,0.0,65,0.00,CLR,,0.00,WeatherDisplay:10.37,2013-10-05 19:54:00,
2013-10-05 14:55:00,46.2,42.6,28.95,NNW,328,0.0,0.0,87,0.00,,,0.00,WeatherDisplay:10.37,2013-10-05 19:55:00,
2013-10-05 14:59:00,85.3,72.2,28.70,North,0,1.1,0.0,65,0.00,CLR,,0.00,WeatherDisplay:10.37,2013-10-05 19:59:00,
2013-10-05 15:00:00,46.2,42.6,28.95,NW,315,0.0,0.0,87,0.00,,,0.00,WeatherDisplay:10.37,2013-10-05 20:00:00,
2013-10-05 15:04:00,85.3,72.2,28.70,North,0,1.1,0.0,65,0.00,CLR,,0.00,WeatherDisplay:10.37,2013-10-05 20:04:00,
2013-10-05 15:05:00,46.2,42.6,28.95,NW,315,0.0,0.0,87,0.00,,,0.00,WeatherDisplay:10.37,2013-10-05 20:05:00,
2013-10-05 15:09:00,85.3,72.2,28.70,North,0,1.1,0.0,65,0.00,CLR,,0.00,WeatherDisplay:10.37,2013-10-05 20:09:00,
2013-10-05 15:10:00,46.2,42.6,28.95,NW,315,0.0,0.0,87,0.00,,,0.00,WeatherDisplay:10.37,2013-10-05 20:10:00,
2013-10-05 15:14:00,85.3,72.2,28.70,North,0,1.1,0.0,65,0.00,CLR,,0.00,WeatherDisplay:10.37,2013-10-05 20:14:00,
2013-10-05 15:15:00,46.2,42.6,28.95,NW,315,0.0,0.0,87,0.00,,,0.00,WeatherDisplay:10.37,2013-10-05 20:15:00,
2013-10-05 15:19:00,85.3,72.2,28.70,North,0,1.1,0.0,65,0.00,CLR,,0.00,WeatherDisplay:10.37,2013-10-05 20:19:00,
2013-10-05 15:20:00,46.6,43.2,28.97,NNW,329,0.0,0.0,88,0.00,,,0.00,WeatherDisplay:10.37,2013-10-05 20:20:00,
2013-10-05 15:24:00,85.3,72.2,28.70,North,0,1.1,0.0,65,0.00,CLR,,0.00,WeatherDisplay:10.37,2013-10-05 20:24:00,
2013-10-05 15:25:00,46.6,43.2,28.97,NNE,22,0.0,0.0,88,0.00,,,0.00,WeatherDisplay:10.37,2013-10-05 20:25:00,
2013-10-05 15:29:00,85.3,72.2,28.70,North,0,1.1,0.0,65,0.00,CLR,,0.00,WeatherDisplay:10.37,2013-10-05 20:29:00,
2013-10-05 15:30:00,46.6,43.2,28.97,NE,45,0.0,0.0,88,0.00,,,0.00,WeatherDisplay:10.37,2013-10-05 20:30:00,
2013-10-05 15:34:00,85.3,72.2,28.70,North,0,1.1,0.0,65,0.00,CLR,,0.00,WeatherDisplay:10.37,2013-10-05 20:34:00,
2013-10-05 15:35:00,46.6,43.2,28.97,NE,45,0.0,0.0,88,0.00,,,0.00,WeatherDisplay:10.37,2013-10-05 20:35:00,
2013-10-05 15:39:00,85.3,72.2,28.70,North,0,1.1,0.0,65,0.00,CLR,,0.00,WeatherDisplay:10.37,2013-10-05 20:39:00,
2013-10-05 15:40:00,46.6,43.2,28.97,NE,45,0.0,0.0,88,0.00,,,0.00,WeatherDisplay:10.37,2013-10-05 20:40:00,
2013-10-05 15:44:00,85.3,72.2,28.70,North,0,1.1,0.0,65,0.00,CLR,,0.00,WeatherDisplay:10.37,2013-10-05 20:44:00,
2013-10-05 15:45:00,46.6,43.2,28.97,NE,45,0.0,0.0,88,0.00,,,0.00,WeatherDisplay:10.37,2013-10-05 20:45:00,
2013-10-05 15:49:00,85.3,72.2,28.70,North,0,1.1,0.0,65,0.00,CLR,,0.00,WeatherDisplay:10.37,2013-10-05 20:49:00,
2013-10-05 15:50:00,48.9,44.9,28.97,NNE,31,0.0,1.0,86,0.00,,,0.00,WeatherDisplay:10.37,2013-10-05 20:50:00,
2013-10-05 15:54:00,85.3,72.2,28.70,North,0,1.1,0.0,65,0.00,CLR,,0.00,WeatherDisplay:10.37,2013-10-05 20:54:00,
2013-10-05 15:55:00,48.9,44.9,28.97,NW,317,0.0,1.0,86,0.00,,,0.00,WeatherDisplay:10.37,2013-10-05 20:55:00,
2013-10-05 15:59:00,85.3,72.2,28.70,North,0,1.1,0.0,65,0.00,CLR,,0.00,WeatherDisplay:10.37,2013-10-05 20:59:00,
2013-10-05 16:00:00,48.9,44.9,28.97,WNW,292,0.0,1.0,86,0.00,,,0.00,WeatherDisplay:10.37,2013-10-05 21:00:00,
2013-10-05 16:04:00,85.3,72.2,28.70,North,0,1.1,0.0,65,0.00,CLR,,0.00,WeatherDisplay:10.37,2013-10-05 21:04:00,
2013-10-05 16:05:00,48.9,44.9,28.97,WNW,292,0.0,1.0,86,0.00,,,0.00,WeatherDisplay:10.37,2013-10-05 21:05:00,
2013-10-05 16:09:00,85.3,72.2,28.70,North,0,1.1,0.0,65,0.00,CLR,,0.00,WeatherDisplay:10.37,2013-10-05 21:09:00,
2013-10-05 16:10:00,48.9,44.9,28.97,WNW,292,0.0,1.0,86,0.00,,,0.00,WeatherDisplay:10.37,2013-10-05 21:10:00,
2013-10-05 16:14:00,85.3,72.2,28.70,North,0,1.1,0.0,65,0.00,CLR,,0.00,WeatherDisplay:10.37,2013-10-05 21:14:00,
2013-10-05 16:15:00,48.9,44.9,28.97,WNW,292,0.0,1.0,86,0.00,,,0.00,WeatherDisplay:10.37,2013-10-05 21:15:00,
2013-10-05 16:19:00,85.3,72.2,28.70,North,0,1.1,0.0,65,0.00,CLR,,0.00,WeatherDisplay:10.37,2013-10-05 21:19:00,
2013-10-05 16:20:00,50.9,45.6,28.98,West,278,0.0,1.0,82,0.00,,,0.00,WeatherDisplay:10.37,2013-10-05 21:20:00,
2013-10-05 16:24:00,85.3,72.2,28.70,North,0,1.1,0.0,65,0.00,CLR,,0.00,WeatherDisplay:10.37,2013-10-05 21:24:00,
2013-10-05 16:25:00,50.9,45.6,28.98,SSW,205,0.0,0.0,82,0.00,,,0.00,WeatherDisplay:10.37,2013-10-05 21:25:00,
2013-10-05 16:29:00,85.3,72.2,28.70,North,0,1.1,0.0,65,0.00,CLR,,0.00,WeatherDisplay:10.37,2013-10-05 21:29:00,
2013-10-05 16:30:00,50.9,45.6,28.98,South,180,0.0,0.0,82,0.00,,,0.00,WeatherDisplay:10.37,2013-10-05 21:30:00,
2013-10-05 16:34:00,85.3,72.2,28.70,North,0,1.1,0.0,65,0.00,CLR,,0.00,WeatherDisplay:10.37,2013-10-05 21:34:00,
2013-10-05 16:35:00,50.9,45.6,28.98,South,180,0.0,0.0,82,0.00,,,0.00,WeatherDisplay:10.37,2013-10-05 21:35:00,
2013-10-05 16:39:00,85.3,72.2,28.70,North,0,1.1,0.0,65,0.00,CLR,,0.00,WeatherDisplay:10.37,2013-10-05 21:39:00,
2013-10-05 16:40:00,50.9,45.6,28.98,South,180,0.0,0.0,82,0.00,,,0.00,WeatherDisplay:10.37,2013-10-05 21:40:00,
2013-10-05 16:44:00,85.3,72.2,28.70,North,0,1.1,0.0,65,0.00,CLR,,0.00,WeatherDisplay:10.37,2013-10-05 21:44:00,
2013-10-05 16:45:00,50.9,45.6,28.98,South,180,0.0,0.0,82,0.00,,,0.00,WeatherDisplay:10.37,2013-10-05 21:45:00,
2013-10-05 16:49:00,85.3,72.2,28.70,North,0,1.1,0.0,65,0.00,CLR,,0.00,WeatherDisplay:10.37,2013-10-05 21:49:00,
2013-10-05 16:50:00,52.3,46.7,28.98,South,180,0.0,0.0,81,0.00,,,0.00,WeatherDisplay:10.37,2013-10-05 21:50:00,
2013-10-05 16:54:00,85.3,72.2,28.70,North,0,1.1,0.0,65,0.00,CLR,,0.00,WeatherDisplay:10.37,2013-10-05 21:54:00,
2013-10-05 16:55:00,52.3,46.7,28.98,North,0,0.0,0.0,81,0.00,,,0.00,WeatherDisplay:10.37,2013-10-05 21:55:00,
2013-10-05 16:59:00,85.3,72.2,28.70,North,0,1.1,0.0,65,0.00,CLR,,0.00,WeatherDisplay:10.37,2013-10-05 21:59:00,
2013-10-05 17:00:00,52.3,46.7,28.98,North,0,0.0,0.0,81,0.00,,,0.00,WeatherDisplay:10.37,2013-10-05 22:00:00,
2013-10-05 17:04:00,85.3,72.2,28.70,North,0,1.1,0.0,65,0.00,CLR,,0.00,WeatherDisplay:10.37,2013-10-05 22:04:00,
2013-10-05 17:05:00,52.3,46.7,28.98,North,0,0.0,0.0,81,0.00,,,0.00,WeatherDisplay:10.37,2013-10-05 22:05:00,
2013-10-05 17:09:00,85.3,72.2,28.70,North,0,1.1,0.0,65,0.00,CLR,,0.00,WeatherDisplay:10.37,2013-10-05 22:09:00,
2013-10-05 17:10:00,52.3,46.7,28.98,North,0,0.0,0.0,81,0.00,,,0.00,WeatherDisplay:10.37,2013-10-05 22:10:00,
2013-10-05 17:14:00,85.3,72.2,28.70,North,0,1.1,0.0,65,0.00,CLR,,0.00,WeatherDisplay:10.37,2013-10-05 22:14:00,
2013-10-05 17:15:00,52.3,46.7,28.98,North,0,0.0,0.0,81,0.00,,,0.00,WeatherDisplay:10.37,2013-10-05 22:15:00,
2013-10-05 17:19:00,85.3,72.2,28.70,North,0,1.1,0.0,65,0.00,CLR,,0.00,WeatherDisplay:10.37,2013-10-05 22:19:00,
2013-10-05 17:20:00,54.7,47.6,28.98,NNW,348,0.0,0.0,77,0.00,,,0.00,WeatherDisplay:10.37,2013-10-05 22:20:00,
2013-10-05 17:24:00,85.3,72.2,28.70,North,0,1.1,0.0,65,0.00,CLR,,0.00,WeatherDisplay:10.37,2013-10-05 22:24:00,
2013-10-05 17:25:00,54.7,47.6,28.98,WSW,249,0.0,0.0,77,0.00,,,0.00,WeatherDisplay:10.37,2013-10-05 22:25:00,
2013-10-05 17:29:00,85.3,72.2,28.70,North,0,1.1,0.0,65,0.00,CLR,,0.00,WeatherDisplay:10.37,2013-10-05 22:29:00,
2013-10-05 17:30:00,54.7,47.6,28.98,SW,225,0.0,0.0,77,0.00,,,0.00,WeatherDisplay:10.37,2013-10-05 22:30:00,
2013-10-05 17:34:00,85.3,72.2,28.70,North,0,1.1,0.0,65,0.00,CLR,,0.00,WeatherDisplay:10.37,2013-10-05 22:34:00,
2013-10-05 17:35:00,54.7,47.6,28.98,SW,225,0.0,0.0,77,0.00,,,0.00,WeatherDisplay:10.37,2013-10-05 22:35:00,
2013-10-05 17:39:00,85.3,72.2,28.70,North,0,1.1,0.0,65,0.00,CLR,,0.00,WeatherDisplay:10.37,2013-10-05 22:39:00,
2013-10-05 17:40:00,54.7,47.6,28.98,SW,225,0.0,0.0,77,0.00,,,0.00,WeatherDisplay:10.37,2013-10-05 22:40:00,
2013-10-05 17:44:00,85.3,72.2,28.70,North,0,1.1,0.0,65,0.00,CLR,,0.00,WeatherDisplay:10.37,2013-10-05 22:44:00,
2013-10-05 17:45:00,54.7,47.6,28.98,SW,225,0.0,0.0,77,0.00,,,0.00,WeatherDisplay:10.37,2013-10-05 22:45:00,
2013-10-05 17:49:00,85.3,72.2,28.70,North,0,1.1,0.0,65,0.00,CLR,,0.00,WeatherDisplay:10.37,2013-10-05 22:49:00,
2013-10-05 17:50:00,58.8,50.2,28.99,WSW,239,0.0,0.0,73,0.00,,,0.00,WeatherDisplay:10.37,2013-10-05 22:50:00,
2013-10-05 17:54:00,85.3,72.2,28.70,North,0,1.1,0.0,65,0.00,CLR,,0.00,WeatherDisplay:10.37,2013-10-05 22:54:00,
2013-10-05 17:55:00,58.8,50.2,28.99,WNW,292,0.0,0.0,73,0.00,,,0.00,WeatherDisplay:10.37,2013-10-05 22:55:00,
2013-10-05 17:59:00,85.3,72.2,28.70,North,0,1.1,0.0,65,0.00,CLR,,0.00,WeatherDisplay:10.37,2013-10-05 22:59:00,
2013-10-05 18:00:00,58.8,50.2,28.99,NW,315,0.0,0.0,73,0.00,,,0.00,WeatherDisplay:10.37,2013-10-05 23:00:00,
2013-10-05 18:04:00,85.3,72.2,28.70,North,0,1.1,0.0,65,0.00,CLR,,0.00,WeatherDisplay:10.37,2013-10-05 23:04:00,
2013-10-05 18:05:00,58.8,50.2,28.99,NW,315,0.0,0.0,73,0.00,,,0.00,WeatherDisplay:10.37,2013-10-05 23:05:00,
2013-10-05 18:09:00,85.3,72.2,28.70,North,0,1.1,0.0,65,0.00,CLR,,0.00,WeatherDisplay:10.37,2013-10-05 23:09:00,
2013-10-05 18:10:00,58.8,50.2,28.99,NW,315,0.0,0.0,73,0.00,,,0.00,WeatherDisplay:10.37,2013-10-05 23:10:00,
2013-10-05 18:14:00,85.3,72.2,28.70,North,0,1.1,0.0,65,0.00,CLR,,0.00,WeatherDisplay:10.37,2013-10-05 23:14:00,
2013-10-05 18:15:00,58.8,50.2,28.99,NW,315,0.0,0.0,73,0.00,,,0.00,WeatherDisplay:10.37,2013-10-05 23:15:00,
2013-10-05 18:19:00,85.3,72.2,28.70,North,0,1.1,0.0,65,0.00,CLR,,0.00,WeatherDisplay:10.37,2013-10-05 23:19:00,
2013-10-05 18:20:00,62.1,51.0,28.98,NW,315,0.0,0.0,67,0.00,,,0.00,WeatherDisplay:10.37,2013-10-05 23:20:00,
2013-10-05 18:24:00,85.3,72.2,28.70,North,0,1.1,0.0,65,0.00,CLR,,0.00,WeatherDisplay:10.37,2013-10-05 23:24:00,
2013-10-05 18:25:00,62.1,51.0,28.98,NW,315,0.0,0.0,67,0.00,,,0.00,WeatherDisplay:10.37,2013-10-05 23:25:00,
2013-10-05 18:29:00,85.3,72.2,28.70,North,0,1.1,0.0,65,0.00,CLR,,0.00,WeatherDisplay:10.37,2013-10-05 23:29:00,
2013-10-05 18:30:00,62.1,51.0,28.98,NW,315,0.0,0.0,67,0.00,,,0.00,WeatherDisplay:10.37,2013-10-05 23:30:00,
2013-10-05 18:34:00,85.3,72.2,28.70,North,0,1.1,0.0,65,0.00,CLR,,0.00,WeatherDisplay:10.37,2013-10-05 23:34:00,
2013-10-05 18:35:00,62.1,51.0,28.98,NW,315,0.0,0.0,67,0.00,,,0.00,WeatherDisplay:10.37,2013-10-05 23:35:00,
2013-10-05 18:39:00,85.3,72.2,28.70,North,0,1.1,0.0,65,0.00,CLR,,0.00,WeatherDisplay:10.37,2013-10-05 23:39:00,
2013-10-05 18:40:00,62.1,51.0,28.98,NW,315,0.0,0.0,67,0.00,,,0.00,WeatherDisplay:10.37,2013-10-05 23:40:00,
2013-10-05 18:44:00,85.3,72.2,28.70,North,0,1.1,0.0,65,0.00,CLR,,0.00,WeatherDisplay:10.37,2013-10-05 23:44:00,
2013-10-05 18:45:00,62.1,51.0,28.98,NW,315,0.0,0.0,67,0.00,,,0.00,WeatherDisplay:10.37,2013-10-05 23:45:00,
2013-10-05 18:49:00,85.3,72.2,28.70,North,0,1.1,0.0,65,0.00,CLR,,0.00,WeatherDisplay:10.37,2013-10-05 23:49:00,
2013-10-05 18:50:00,66.2,50.5,28.98,NW,315,0.0,0.0,57,0.00,,,0.00,WeatherDisplay:10.37,2013-10-05 23:50:00,
2013-10-05 18:54:00,85.3,72.2,28.70,North,0,1.1,0.0,65,0.00,CLR,,0.00,WeatherDisplay:10.37,2013-10-05 23:54:00,
2013-10-05 18:55:00,66.2,50.5,28.98,NW,315,0.0,0.0,57,0.00,,,0.00,WeatherDisplay:10.37,2013-10-05 23:55:00,
2013-10-05 18:59:00,85.3,72.2,28.70,North,0,1.1,0.0,65,0.00,CLR,,0.00,WeatherDisplay:10.37,2013-10-05 23:59:00,
2013-10-05 19:00:00,66.2,50.5,28.98,NW,315,0.0,0.0,57,0.00,,,0.00,WeatherDisplay:10.37,2013-10-06 00:00:00,
2013-10-05 19:04:00,85.3,72.2,28.70,North,0,1.1,0.0,65,0.00,CLR,,0.00,WeatherDisplay:10.37,2013-10-06 00:04:00,
2013-10-05 19:05:00,66.2,50.5,28.98,NW,315,0.0,0.0,57,0.00,,,0.00,WeatherDisplay:10.37,2013-10-06 00:05:00,
2013-10-05 19:09:00,85.3,72.2,28.70,North,0,1.1,0.0,65,0.00,CLR,,0.00,WeatherDisplay:10.37,2013-10-06 00:09:00,
2013-10-05 19:10:00,66.2,50.5,28.98,NW,315,0.0,0.0,57,0.00,,,0.00,WeatherDisplay:10.37,2013-10-06 00:10:00,
2013-10-05 19:14:00,85.3,72.2,28.70,North,0,1.1,0.0,65,0.00,CLR,,0.00,WeatherDisplay:10.37,2013-10-06 00:14:00,
2013-10-05 19:15:00,66.2,50.5,28.98,NW,315,0.0,0.0,57,0.00,,,0.00,WeatherDisplay:10.37,2013-10-06 00:15:00,
2013-10-05 19:19:00,85.3,72.2,28.70,North,0,1.1,0.0,65,0.00,CLR,,0.00,WeatherDisplay:10.37,2013-10-06 00:19:00,
2013-10-05 19:20:00,68.9,50.0,28.98,NW,324,0.0,1.0,51,0.00,,,0.00,WeatherDisplay:10.37,2013-10-06 00:20:00,
2013-10-05 19:24:00,85.3,72.2,28.70,North,0,1.1,0.0,65,0.00,CLR,,0.00,WeatherDisplay:10.37,2013-10-06 00:24:00,
2013-10-05 19:25:00,68.9,50.0,28.98,NNW,347,0.0,1.0,51,0.00,,,0.00,WeatherDisplay:10.37,2013-10-06 00:25:00,
2013-10-05 19:29:00,85.3,72.2,28.70,North,0,1.1,0.0,65,0.00,CLR,,0.00,WeatherDisplay:10.37,2013-10-06 00:29:00,
2013-10-05 19:30:00,68.9,50.0,28.98,North,0,0.0,1.0,51,0.00,,,0.00,WeatherDisplay:10.37,2013-10-06 00:30:00,
2013-10-05 19:34:00,85.3,72.2,28.70,North,0,1.1,0.0,65,0.00,CLR,,0.00,WeatherDisplay:10.37,2013-10-06 00:34:00,
2013-10-05 19:35:00,68.9,50.0,28.98,North,0,0.0,1.0,51,0.00,,,0.00,WeatherDisplay:10.37,2013-10-06 00:35:00,
2013-10-05 19:39:00,85.3,72.2,28.70,North,0,1.1,0.0,65,0.00,CLR,,0.00,WeatherDisplay:10.37,2013-10-06 00:39:00,
2013-10-05 19:40:00,68.9,50.0,28.98,North,0,0.0,1.0,51,0.00,,,0.00,WeatherDisplay:10.37,2013-10-06 00:40:00,
2013-10-05 19:44:00,85.3,72.2,28.70,North,0,1.1,0.0,65,0.00,CLR,,0.00,WeatherDisplay:10.37,2013-10-06 00:44:00,
2013-10-05 19:45:00,68.9,50.0,28.98,North,0,0.0,1.0,51,0.00,,,0.00,WeatherDisplay:10.37,2013-10-06 00:45:00,
2013-10-05 19:49:00,85.3,72.2,28.70,North,0,1.1,0.0,65,0.00,CLR,,0.00,WeatherDisplay:10.37,2013-10-06 00:49:00,
2013-10-05 19:50:00,73.9,50.6,28.98,North,9,0.0,1.0,44,0.00,,,0.00,WeatherDisplay:10.37,2013-10-06 00:50:00,
2013-10-05 19:54:00,85.3,72.2,28.70,North,0,1.1,0.0,65,0.00,CLR,,0.00,WeatherDisplay:10.37,2013-10-06 00:54:00,
2013-10-05 19:55:00,73.9,50.6,28.98,NNE,32,0.0,0.0,44,0.00,,,0.00,WeatherDisplay:10.37,2013-10-06 00:55:00,
2013-10-05 19:59:00,85.3,72.2,28.70,North,0,1.1,0.0,65,0.00,CLR,,0.00,WeatherDisplay:10.37,2013-10-06 00:59:00,
2013-10-05 20:00:00,73.9,50.6,28.98,NE,45,0.0,0.0,44,0.00,,,0.00,WeatherDisplay:10.37,2013-10-06 01:00:00,
2013-10-05 20:04:00,85.3,72.2,28.70,North,0,1.1,0.0,65,0.00,CLR,,0.00,WeatherDisplay:10.37,2013-10-06 01:04:00,
2013-10-05 20:05:00,73.9,50.6,28.98,NE,45,0.0,0.0,44,0.00,,,0.00,WeatherDisplay:10.37,2013-10-06 01:05:00,
2013-10-05 20:09:00,85.3,72.2,28.70,North,0,1.1,0.0,65,0.00,CLR,,0.00,WeatherDisplay:10.37,2013-10-06 01:09:00,
2013-10-05 20:10:00,73.9,50.6,28.98,NE,45,0.0,0.0,44,0.00,,,0.00,WeatherDisplay:10.37,2013-10-06 01:10:00,
2013-10-05 20:14:00,85.3,72.2,28.70,North,0,1.1,0.0,65,0.00,CLR,,0.00,WeatherDisplay:10.37,2013-10-06 01:14:00,
2013-10-05 20:15:00,73.9,50.6,28.98,NE,45,0.0,0.0,44,0.00,,,0.00,WeatherDisplay:10.37,2013-10-06 01:15:00,
2013-10-05 20:19:00,85.3,72.2,28.70,North,0,1.1,0.0,65,0.00,CLR,,0.00,WeatherDisplay:10.37,2013-10-06 01:19:00,
2013-10-05 20:20:00,80.1,52.9,28.96,ENE,57,0.0,0.0,39,0.00,,,0.00,WeatherDisplay:10.37,2013-10-06 01:20:00,
2013-10-05 20:24:00,85.3,72.2,28.70,North,0,1.1,0.0,65,0.00,CLR,,0.00,WeatherDisplay:10.37,2013-10-06 01:24:00,
2013-10-05 20:25:00,80.1,52.9,28.96,SSE,156,0.0,0.0,39,0.00,,,0.00,WeatherDisplay:10.37,2013-10-06 01:25:00,
2013-10-05 20:29:00,85.3,72.2,28.70,North,0,1.1,0.0,65,0.00,CLR,,0.00,WeatherDisplay:10.37,2013-10-06 01:29:00,
2013-10-05 20:30:00,80.1,52.9,28.96,South,180,0.0,0.0,39,0.00,,,0.00,WeatherDisplay:10.37,2013-10-06 01:30:00,
2013-10-05 20:34:00,85.3,72.2,28.70,North,0,1.1,0.0,65,0.00,CLR,,0.00,WeatherDisplay:10.37,2013-10-06 01:34:00,
2013-10-05 20:35:00,80.1,52.9,28.96,South,180,0.0,0.0,39,0.00,,,0.00,WeatherDisplay:10.37,2013-10-06 01:35:00,
2013-10-05 20:39:00,85.3,72.2,28.70,North,0,1.1,0.0,65,0.00,CLR,,0.00,WeatherDisplay:10.37,2013-10-06 01:39:00,
2013-10-05 20:40:00,80.1,52.9,28.96,South,180,0.0,0.0,39,0.00,,,0.00,WeatherDisplay:10.37,2013-10-06 01:40:00,
2013-10-05 20:44:00,85.3,72.2,28.70,North,0,1.1,0.0,65,0.00,CLR,,0.00,WeatherDisplay:10.37,2013-10-06 01:44:00,
2013-10-05 20:45:00,80.1,52.9,28.96,South,180,0.0,0.0,39,0.00,,,0.00,WeatherDisplay:10.37,2013-10-06 01:45:00,
2013-10-05 20:49:00,85.3,72.2,28.70,North,0,1.1,0.0,65,0.00,CLR,,0.00,WeatherDisplay:10.37,2013-10-06 01:49:00,
2013-10-05 20:50:00,81.9,51.5,28.95,SSE,168,0.0,2.0,35,0.00,,,0.00,WeatherDisplay:10.37,2013-10-06 01:50:00,
2013-10-05 20:54:00,85.3,72.2,28.70,North,0,1.1,0.0,65,0.00,CLR,,0.00,WeatherDisplay:10.37,2013-10-06 01:54:00,
2013-10-05 20:55:00,81.9,51.5,28.95,ENE,69,0.0,2.0,35,0.00,,,0.00,WeatherDisplay:10.37,2013-10-06 01:55:00,
2013-10-05 20:59:00,85.3,72.2,28.70,North,0,1.1,0.0,65,0.00,CLR,,0.00,WeatherDisplay:10.37,2013-10-06 01:59:00,
2013-10-05 21:00:00,81.9,51.5,28.95,NE,45,0.0,2.0,35,0.00,,,0.00,WeatherDisplay:10.37,2013-10-06 02:00:00,
2013-10-05 21:04:00,85.3,72.2,28.70,North,0,1.1,0.0,65,0.00,CLR,,0.00,WeatherDisplay:10.37,2013-10-06 02:04:00,
2013-10-05 21:05:00,81.9,51.5,28.95,NE,45,0.0,2.0,35,0.00,,,0.00,WeatherDisplay:10.37,2013-10-06 02:05:00,
2013-10-05 21:09:00,85.3,72.2,28.70,North,0,1.1,0.0,65,0.00,CLR,,0.00,WeatherDisplay:10.37,2013-10-06 02:09:00,
2013-10-05 21:10:00,81.9,51.5,28.95,NE,45,0.0,2.0,35,0.00,,,0.00,WeatherDisplay:10.37,2013-10-06 02:10:00,
2013-10-05 21:14:00,85.3,72.2,28.70,North,0,1.1,0.0,65,0.00,CLR,,0.00,WeatherDisplay:10.37,2013-10-06 02:14:00,
2013-10-05 21:15:00,81.9,51.5,28.95,NE,45,0.0,2.0,35,0.00,,,0.00,WeatherDisplay:10.37,2013-10-06 02:15:00,
2013-10-05 21:19:00,85.3,72.2,28.70,North,0,1.1,0.0,65,0.00,CLR,,0.00,WeatherDisplay:10.37,2013-10-06 02:19:00,
2013-10-05 21:20:00,82.2,52.6,28.93,NNE,31,0.0,2.0,36,0.00,,,0.00,WeatherDisplay:10.37,2013-10-06 02:20:00,
2013-10-05 21:24:00,85.3,72.2,28.70,North,0,1.1,0.0,65,0.00,CLR,,0.00,WeatherDisplay:10.37,2013-10-06 02:24:00,
2013-10-05 21:25:00,82.2,52.6,28.93,NNW,338,0.0,1.0,36,0.00,,,0.00,WeatherDisplay:10.37,2013-10-06 02:25:00,
2013-10-05 21:29:00,85.3,72.2,28.70,North,0,1.1,0.0,65,0.00,CLR,,0.00,WeatherDisplay:10.37,2013-10-06 02:29:00,
2013-10-05 21:30:00,82.2,52.6,28.93,NW,315,0.0,1.0,36,0.00,,,0.00,WeatherDisplay:10.37,2013-10-06 02:30:00,
2013-10-05 21:34:00,85.3,72.2,28.70,North,0,1.1,0.0,65,0.00,CLR,,0.00,WeatherDisplay:10.37,2013-10-06 02:34:00,
2013-10-05 21:35:00,82.2,52.6,28.93,NW,315,0.0,1.0,36,0.00,,,0.00,WeatherDisplay:10.37,2013-10-06 02:35:00,
2013-10-05 21:39:00,85.3,72.2,28.70,North,0,1.1,0.0,65,0.00,CLR,,0.00,WeatherDisplay:10.37,2013-10-06 02:39:00,
2013-10-05 21:40:00,82.2,52.6,28.93,NW,315,0.0,1.0,36,0.00,,,0.00,WeatherDisplay:10.37,2013-10-06 02:40:00,
2013-10-05 21:44:00,85.3,72.2,28.70,North,0,1.1,0.0,65,0.00,CLR,,0.00,WeatherDisplay:10.37,2013-10-06 02:44:00,
2013-10-05 21:45:00,82.2,52.6,28.93,NW,315,0.0,1.0,36,0.00,,,0.00,WeatherDisplay:10.37,2013-10-06 02:45:00,
2013-10-05 21:49:00,85.3,72.2,28.70,North,0,1.1,0.0,65,0.00,CLR,,0.00,WeatherDisplay:10.37,2013-10-06 02:49:00,
2013-10-05 21:50:00,83.5,52.9,28.92,NW,324,0.0,1.0,35,0.00,,,0.00,WeatherDisplay:10.37,2013-10-06 02:50:00,
2013-10-05 21:54:00,85.3,72.2,28.70,North,0,1.1,0.0,65,0.00,CLR,,0.00,WeatherDisplay:10.37,2013-10-06 02:54:00,
2013-10-05 21:55:00,83.5,52.9,28.92,NNW,347,0.0,1.0,35,0.00,,,0.00,WeatherDisplay:10.37,2013-10-06 02:55:00,
2013-10-05 21:59:00,85.3,72.2,28.70,North,0,1.1,0.0,65,0.00,CLR,,0.00,WeatherDisplay:10.37,2013-10-06 02:59:00,
2013-10-05 22:00:00,83.5,52.9,28.92,North,0,0.0,1.0,35,0.00,,,0.00,WeatherDisplay:10.37,2013-10-06 03:00:00,
2013-10-05 22:04:00,85.3,72.2,28.70,North,0,1.1,0.0,65,0.00,CLR,,0.00,WeatherDisplay:10.37,2013-10-06 03:04:00,
2013-10-05 22:05:00,83.5,52.9,28.92,North,0,0.0,1.0,35,0.00,,,0.00,WeatherDisplay:10.37,2013-10-06 03:05:00,
2013-10-05 22:09:00,85.3,72.2,28.70,North,0,1.1,0.0,65,0.00,CLR,,0.00,WeatherDisplay:10.37,2013-10-06 03:09:00,
2013-10-05 22:10:00,83.5,52.9,28.92,North,0,0.0,1.0,35,0.00,,,0.00,WeatherDisplay:10.37,2013-10-06 03:10:00,
2013-10-05 22:14:00,85.3,72.2,28.70,North,0,1.1,0.0,65,0.00,CLR,,0.00,WeatherDisplay:10.37,2013-10-06 03:14:00,
2013-10-05 22:15:00,83.5,52.9,28.92,North,0,0.0,1.0,35,0.00,,,0.00,WeatherDisplay:10.37,2013-10-06 03:15:00,
2013-10-05 22:19:00,85.3,72.2,28.70,North,0,1.1,0.0,65,0.00,CLR,,0.00,WeatherDisplay:10.37,2013-10-06 03:19:00,
2013-10-05 22:20:00,85.8,50.8,28.91,North,351,0.0,1.0,30,0.00,,,0.00,WeatherDisplay:10.37,2013-10-06 03:20:00,
2013-10-05 22:24:00,85.3,72.2,28.70,North,0,1.1,0.0,65,0.00,CLR,,0.00,WeatherDisplay:10.37,2013-10-06 03:24:00,
2013-10-05 22:25:00,85.8,50.8,28.91,NNW,328,0.0,1.0,30,0.00,,,0.00,WeatherDisplay:10.37,2013-10-06 03:25:00,
2013-10-05 22:29:00,85.3,72.2,28.70,North,0,1.1,0.0,65,0.00,CLR,,0.00,WeatherDisplay:10.37,2013-10-06 03:29:00,
2013-10-05 22:30:00,85.8,50.8,28.91,NW,315,0.0,1.0,30,0.00,,,0.00,WeatherDisplay:10.37,2013-10-06 03:30:00,
2013-10-05 22:34:00,85.3,72.2,28.70,North,0,1.1,0.0,65,0.00,CLR,,0.00,WeatherDisplay:10.37,2013-10-06 03:34:00,
2013-10-05 22:35:00,85.8,50.8,28.91,NW,315,0.0,1.0,30,0.00,,,0.00,WeatherDisplay:10.37,2013-10-06 03:35:00,
2013-10-05 22:39:00,85.3,72.2,28.70,North,0,1.1,0.0,65,0.00,CLR,,0.00,WeatherDisplay:10.37,2013-10-06 03:39:00,
2013-10-05 22:40:00,85.8,50.8,28.91,NW,315,0.0,1.0,30,0.00,,,0.00,WeatherDisplay:10.37,2013-10-06 03:40:00,
2013-10-05 22:44:00,85.3,72.2,28.70,North,0,1.1,0.0,65,0.00,CLR,,0.00,WeatherDisplay:10.37,2013-10-06 03:44:00,
2013-10-05 22:45:00,85.8,50.8,28.91,NW,315,0.0,1.0,30,0.00,,,0.00,WeatherDisplay:10.37,2013-10-06 03:45:00,
2013-10-05 22:49:00,85.3,72.2,28.70,North,0,1.1,0.0,65,0.00,CLR,,0.00,WeatherDisplay:10.37,2013-10-06 03:49:00,
2013-10-05 22:50:00,85.6,49.7,28.91,NW,315,0.0,1.0,29,0.00,,,0.00,WeatherDisplay:10.37,2013-10-06 03:50:00,
2013-10-05 22:54:00,85.3,72.2,28.70,North,0,1.1,0.0,65,0.00,CLR,,0.00,WeatherDisplay:10.37,2013-10-06 03:54:00,
2013-10-05 22:55:00,85.6,49.7,28.91,NW,315,0.0,1.0,29,0.00,,,0.00,WeatherDisplay:10.37,2013-10-06 03:55:00,
2013-10-05 22:59:00,85.3,72.2,28.70,North,0,1.1,0.0,65,0.00,CLR,,0.00,WeatherDisplay:10.37,2013-10-06 03:59:00,
2013-10-05 23:00:00,85.6,49.7,28.91,NW,315,0.0,1.0,29,0.00,,,0.00,WeatherDisplay:10.37,2013-10-06 04:00:00,
2013-10-05 23:01:00,85.3,72.2,28.70,North,0,1.1,0.0,65,0.00,CLR,,0.00,WeatherDisplay:10.37,2013-10-06 04:01:00,
2013-10-05 23:02:00,85.3,72.2,28.70,North,0,1.1,0.0,65,0.00,CLR,,0.00,WeatherDisplay:10.37,2013-10-06 04:02:00,
2013-10-05 23:03:00,85.3,72.2,28.70,North,0,1.1,0.0,65,0.00,CLR,,0.00,WeatherDisplay:10.37,2013-10-06 04:03:00,
2013-10-05 23:05:00,85.6,49.7,28.91,NW,315,0.0,1.0,29,0.00,,,0.00,WeatherDisplay:10.37,2013-10-06 04:05:00,
2013-10-05 23:08:00,85.3,72.2,28.70,North,0,1.1,0.0,65,0.00,CLR,,0.00,WeatherDisplay:10.37,2013-10-06 04:08:00,
2013-10-05 23:10:00,85.6,49.7,28.91,NW,315,0.0,1.0,29,0.00,,,0.00,WeatherDisplay:10.37,2013-10-06 04:10:00,
2013-10-05 23:13:00,85.3,72.2,28.70,North,0,1.1,0.0,65,0.00,CLR,,0.00,WeatherDisplay:10.37,2013-10-06 04:13:00,
2013-10-05 23:15:00,85.6,49.7,28.91,NW,315,0.0,1.0,29,0.00,,,0.00,WeatherDisplay:10.37,2013-10-06 04:15:00,
2013-10-05 23:18:00,85.3,72.2,28.70,North,0,1.1,0.0,65,0.00,CLR,,0.00,WeatherDisplay:10.37,2013-10-06 04:18:00,
2013-10-05 23:20:00,87.4,50.3,28.90,NW,324,0.0,1.0,28,0.00,,,0.00,WeatherDisplay:10.37,2013-10-06 04:20:00,
2013-10-05 23:23:00,85.3,72.2,28.70,North,0,1.1,0.0,65,0.00,CLR,,0.00,WeatherDisplay:10.37,2013-10-06 04:23:00,
2013-10-05 23:25:00,87.4,50.3,28.90,NNW,347,0.0,1.0,28,0.00,,,0.00,WeatherDisplay:10.37,2013-10-06 04:25:00,
2013-10-05 23:28:00,85.3,72.2,28.70,North,0,1.1,0.0,65,0.00,CLR,,0.00,WeatherDisplay:10.37,2013-10-06 04:28:00,
2013-10-05 23:30:00,87.4,50.3,28.90,North,0,0.0,1.0,28,0.00,,,0.00,WeatherDisplay:10.37,2013-10-06 04:30:00,
2013-10-05 23:33:00,85.3,72.2,28.70,North,0,1.1,0.0,65,0.00,CLR,,0.00,WeatherDisplay:10.37,2013-10-06 04:33:00,
2013-10-05 23:35:00,87.4,50.3,28.90,North,0,0.0,1.0,28,0.00,,,0.00,WeatherDisplay:10.37,2013-10-06 04:35:00,
2013-10-05 23:38:00,85.3,72.2,28.70,North,0,1.1,0.0,65,0.00,CLR,,0.00,WeatherDisplay:10.37,2013-10-06 04:38:00,
2013-10-05 23:40:00,87.4,50.3,28.90,North,0,0.0,1.0,28,0.00,,,0.00,WeatherDisplay:10.37,2013-10-06 04:40:00,
2013-10-05 23:43:00,85.3,72.2,28.70,North,0,1.1,0.0,65,0.00,CLR,,0.00,WeatherDisplay:10.37,2013-10-06 04:43:00,
2013-10-05 23:45:00,87.4,50.3,28.90,North,0,0.0,1.0,28,0.00,,,0.00,WeatherDisplay:10.37,2013-10-06 04:45:00,
2013-10-05 23:48:00,85.3,72.2,28.70,North,0,1.1,0.0,65,0.00,CLR,,0.00,WeatherDisplay:10.37,2013-10-06 04:48:00,
2013-10-05 23:50:00,85.5,50.5,28.89,North,0,0.0,1.0,30,0.00,,,0.00,WeatherDisplay:10.37,2013-10-06 04:50:00,
2013-10-05 23:53:00,85.3,72.2,28.70,North,0,1.1,0.0,65,0.00,CLR,,0.00,WeatherDisplay:10.37,2013-10-06 04:53:00,
2013-10-05 23:55:00,85.5,50.5,28.89,North,0,0.0,1.0,30,0.00,,,0.00,WeatherDisplay:10.37,2013-10-06 04:55:00,
2013-10-05 23:58:00,85.3,72.2,28.70,North,0,1.1,0.0,65,0.00,CLR,,0.00,WeatherDisplay:10.37,2013-10-06 04:58:00,